Observation data for Fort Chadbourne on 10/17/2020      Previous  Date  Next       Current Mesonet Observations  Soil Data  Daily Summary Page  Observations in Plain Language
KCH1 170500Z 15004KT 11/M01 A3019 RMK A01 T01141006  RH  043%=      5-min Rain = 0
KCH1 170501Z 15005KT 11/M01 A3019 RMK A01 T01131006  RH  043%=      5-min Rain = 0
KCH1 170502Z 15005KT 11/M01 A3019 RMK A01 T01131006  RH  043%=      5-min Rain = 0
KCH1 170503Z 15004KT 11/M01 A3019 RMK A01 T01131006  RH  044%=      5-min Rain = 0
KCH1 170504Z 14004KT 11/M01 A3019 RMK A01 T01131006  RH  044%=      5-min Rain = 0
KCH1 170505Z 15004KT 11/M01 A3019 RMK A01 T01131006  RH  044%=      5-min Rain = 0
KCH1 170506Z 15004KT 11/M01 A3019 RMK A01 T01131006  RH  044%=      5-min Rain = 0
KCH1 170507Z 15004KT 11/M01 A3019 RMK A01 T01131006  RH  044%=      5-min Rain = 0
KCH1 170508Z 15003KT 11/M01 A3019 RMK A01 T01131006  RH  044%=      5-min Rain = 0
KCH1 170509Z 15003KT 11/M01 A3019 RMK A01 T01131006  RH  044%=      5-min Rain = 0
KCH1 170510Z 15004KT 11/M01 A3019 RMK A01 T01131006  RH  044%=      5-min Rain = 0
KCH1 170511Z 16003KT 11/M01 A3019 RMK A01 T01121006  RH  044%=      5-min Rain = 0
KCH1 170512Z 15003KT 11/M01 A3019 RMK A01 T01121006  RH  044%=      5-min Rain = 0
KCH1 170513Z 15003KT 11/M01 A3019 RMK A01 T01131006  RH  044%=      5-min Rain = 0
KCH1 170514Z 16003KT 11/M01 A3019 RMK A01 T01121006  RH  044%=      5-min Rain = 0
KCH1 170515Z 15003KT 11/M01 A3019 RMK A01 T01121006  RH  044%=      5-min Rain = 0
KCH1 170516Z 16003KT 11/M01 A3019 RMK A01 T01121006  RH  044%=      5-min Rain = 0
KCH1 170517Z 16003KT 11/M01 A3019 RMK A01 T01121006  RH  044%=      5-min Rain = 0
KCH1 170518Z 16003KT 11/M01 A3019 RMK A01 T01131006  RH  044%=      5-min Rain = 0
KCH1 170519Z 16003KT 11/M01 A3019 RMK A01 T01131006  RH  044%=      5-min Rain = 0
KCH1 170520Z 16003KT 11/M01 A3019 RMK A01 T01121006  RH  044%=      5-min Rain = 0
KCH1 170521Z 16003KT 11/M01 A3019 RMK A01 T01121006  RH  044%=      5-min Rain = 0
KCH1 170522Z 16003KT 11/M01 A3019 RMK A01 T01111006  RH  044%=      5-min Rain = 0
KCH1 170523Z 16003KT 11/M01 A3019 RMK A01 T01111005  RH  045%=      5-min Rain = 0
KCH1 170524Z 16003KT 11/M01 A3019 RMK A01 T01111006  RH  045%=      5-min Rain = 0
KCH1 170525Z 16003KT 11/M01 A3019 RMK A01 T01101006  RH  045%=      5-min Rain = 0
KCH1 170526Z 16003KT 11/M01 A3019 RMK A01 T01101006  RH  045%=      5-min Rain = 0
KCH1 170527Z 16003KT 11/M01 A3018 RMK A01 T01101006  RH  045%=      5-min Rain = 0
KCH1 170528Z 16003KT 11/M01 A3018 RMK A01 T01101006  RH  045%=      5-min Rain = 0
KCH1 170529Z 16003KT 11/M01 A3018 RMK A01 T01091006  RH  045%=      5-min Rain = 0
KCH1 170530Z 16003KT 11/M01 A3018 RMK A01 T01091006  RH  045%=      5-min Rain = 0
KCH1 170531Z 16003KT 11/M01 A3018 RMK A01 T01091005  RH  045%=      5-min Rain = 0
KCH1 170532Z 17002KT 11/M01 A3018 RMK A01 T01081006  RH  045%=      5-min Rain = 0
KCH1 170533Z 16002KT 11/M01 A3018 RMK A01 T01081006  RH  045%=      5-min Rain = 0
KCH1 170534Z 16003KT 11/M01 A3018 RMK A01 T01071006  RH  046%=      5-min Rain = 0
KCH1 170535Z 16003KT 11/M01 A3018 RMK A01 T01071006  RH  045%=      5-min Rain = 0
KCH1 170536Z 16003KT 11/M01 A3018 RMK A01 T01071006  RH  045%=      5-min Rain = 0
KCH1 170537Z 16003KT 11/M01 A3018 RMK A01 T01071006  RH  045%=      5-min Rain = 0
KCH1 170538Z 16003KT 11/M01 A3018 RMK A01 T01071006  RH  045%=      5-min Rain = 0
KCH1 170539Z 16003KT 11/M01 A3018 RMK A01 T01071006  RH  046%=      5-min Rain = 0
KCH1 170540Z 17003KT 11/M01 A3018 RMK A01 T01071006  RH  046%=      5-min Rain = 0
KCH1 170541Z 16003KT 11/M01 A3018 RMK A01 T01071006  RH  046%=      5-min Rain = 0
KCH1 170542Z 16003KT 11/M01 A3018 RMK A01 T01061006  RH  046%=      5-min Rain = 0
KCH1 170543Z 16003KT 11/M01 A3018 RMK A01 T01061006  RH  046%=      5-min Rain = 0
KCH1 170544Z 16003KT 11/M01 A3018 RMK A01 T01061006  RH  046%=      5-min Rain = 0
KCH1 170545Z 16003KT 11/M01 A3018 RMK A01 T01061006  RH  046%=      5-min Rain = 0
KCH1 170546Z 16003KT 11/M01 A3018 RMK A01 T01061006  RH  046%=      5-min Rain = 0
KCH1 170547Z 16003KT 11/M01 A3017 RMK A01 T01061006  RH  046%=      5-min Rain = 0
KCH1 170548Z 16003KT 11/M01 A3017 RMK A01 T01061006  RH  046%=      5-min Rain = 0
KCH1 170549Z 16003KT 11/M01 A3017 RMK A01 T01061006  RH  046%=      5-min Rain = 0
KCH1 170550Z 16003KT 11/M01 A3017 RMK A01 T01051006  RH  046%=      5-min Rain = 0
KCH1 170551Z 16003KT 10/M01 A3017 RMK A01 T01041005  RH  047%=      5-min Rain = 0
KCH1 170552Z 16003KT 10/M01 A3017 RMK A01 T01031005  RH  047%=      5-min Rain = 0
KCH1 170553Z 16003KT 10/M01 A3017 RMK A01 T01031005  RH  047%=      5-min Rain = 0
KCH1 170554Z 17003KT 10/M01 A3017 RMK A01 T01021005  RH  047%=      5-min Rain = 0
KCH1 170555Z 16003KT 10/M01 A3017 RMK A01 T01011006  RH  047%=      5-min Rain = 0
KCH1 170556Z 17003KT 10/M01 A3017 RMK A01 T01011006  RH  047%=      5-min Rain = 0
KCH1 170557Z 16002KT 10/M01 A3017 RMK A01 T01011006  RH  047%=      5-min Rain = 0
KCH1 170558Z 16003KT 10/M01 A3017 RMK A01 T01011006  RH  048%=      5-min Rain = 0
KCH1 170559Z 16003KT 10/M01 A3017 RMK A01 T01001006  RH  048%=      5-min Rain = 0
KCH1 170600Z 16003KT 10/M01 A3017 RMK A01 T01001006  RH  048%=      5-min Rain = 0
KCH1 170601Z 16003KT 10/M01 A3017 RMK A01 T01001006  RH  048%=      5-min Rain = 0
KCH1 170602Z 16003KT 10/M01 A3017 RMK A01 T01001006  RH  048%=      5-min Rain = 0
KCH1 170603Z 16003KT 10/M01 A3017 RMK A01 T01001006  RH  048%=      5-min Rain = 0
KCH1 170604Z 16003KT 10/M01 A3017 RMK A01 T01001006  RH  048%=      5-min Rain = 0
KCH1 170605Z 16003KT 10/M01 A3017 RMK A01 T00991006  RH  048%=      5-min Rain = 0
KCH1 170606Z 16003KT 10/M01 A3017 RMK A01 T00991006  RH  048%=      5-min Rain = 0
KCH1 170607Z 16003KT 10/M01 A3017 RMK A01 T00991005  RH  048%=      5-min Rain = 0
KCH1 170608Z 16004KT 10/M01 A3017 RMK A01 T00981005  RH  049%=      5-min Rain = 0
KCH1 170609Z 16003KT 10/M01 A3017 RMK A01 T00981005  RH  049%=      5-min Rain = 0
KCH1 170610Z 16003KT 10/M00 A3017 RMK A01 T00971004  RH  049%=      5-min Rain = 0
KCH1 170611Z 17003KT 10/M00 A3017 RMK A01 T00971004  RH  049%=      5-min Rain = 0
KCH1 170612Z 17003KT 10/M00 A3017 RMK A01 T00961004  RH  049%=      5-min Rain = 0
KCH1 170613Z 16003KT 10/M00 A3017 RMK A01 T00961004  RH  050%=      5-min Rain = 0
KCH1 170614Z 16003KT 10/M00 A3017 RMK A01 T00961004  RH  050%=      5-min Rain = 0
KCH1 170615Z 16004KT 10/M00 A3017 RMK A01 T00961004  RH  050%=      5-min Rain = 0
KCH1 170616Z 16003KT 10/M00 A3017 RMK A01 T00961004  RH  050%=      5-min Rain = 0
KCH1 170617Z 16004KT 10/M00 A3017 RMK A01 T00961004  RH  050%=      5-min Rain = 0
KCH1 170618Z 16003KT 10/M00 A3017 RMK A01 T00961004  RH  050%=      5-min Rain = 0
KCH1 170619Z 16004KT 10/M00 A3017 RMK A01 T00951004  RH  050%=      5-min Rain = 0
KCH1 170620Z 16004KT 10/M00 A3017 RMK A01 T00951004  RH  050%=      5-min Rain = 0
KCH1 170621Z 16003KT 10/M00 A3017 RMK A01 T00951004  RH  050%=      5-min Rain = 0
KCH1 170622Z 16004KT 10/M00 A3017 RMK A01 T00951004  RH  050%=      5-min Rain = 0
KCH1 170623Z 16004KT 10/M00 A3017 RMK A01 T00951004  RH  050%=      5-min Rain = 0
KCH1 170624Z 16004KT 10/M00 A3017 RMK A01 T00951004  RH  050%=      5-min Rain = 0
KCH1 170625Z 16004KT 10/M00 A3017 RMK A01 T00951004  RH  050%=      5-min Rain = 0
KCH1 170626Z 15004KT 09/M00 A3017 RMK A01 T00941004  RH  050%=      5-min Rain = 0
KCH1 170627Z 15004KT 09/M00 A3017 RMK A01 T00941004  RH  050%=      5-min Rain = 0
KCH1 170628Z 15004KT 09/M00 A3016 RMK A01 T00941003  RH  051%=      5-min Rain = 0
KCH1 170629Z 15004KT 09/M00 A3016 RMK A01 T00931004  RH  051%=      5-min Rain = 0
KCH1 170630Z 15004KT 09/M00 A3016 RMK A01 T00921003  RH  051%=      5-min Rain = 0
KCH1 170631Z 16004KT 09/M00 A3016 RMK A01 T00921003  RH  051%=      5-min Rain = 0
KCH1 170632Z 15004KT 09/M00 A3016 RMK A01 T00921003  RH  051%=      5-min Rain = 0
KCH1 170633Z 16004KT 09/M00 A3016 RMK A01 T00921003  RH  051%=      5-min Rain = 0
KCH1 170634Z 15004KT 09/M00 A3016 RMK A01 T00921003  RH  051%=      5-min Rain = 0
KCH1 170635Z 16004KT 09/M00 A3016 RMK A01 T00921003  RH  051%=      5-min Rain = 0
KCH1 170636Z 16004KT 09/M00 A3016 RMK A01 T00921003  RH  051%=      5-min Rain = 0
KCH1 170637Z 15003KT 09/M00 A3016 RMK A01 T00921003  RH  051%=      5-min Rain = 0
KCH1 170638Z 15003KT 09/M00 A3016 RMK A01 T00921003  RH  051%=      5-min Rain = 0
KCH1 170639Z 15003KT 09/M00 A3016 RMK A01 T00921003  RH  051%=      5-min Rain = 0
KCH1 170640Z 15003KT 09/M00 A3016 RMK A01 T00921003  RH  051%=      5-min Rain = 0
KCH1 170641Z 15002KT 09/M00 A3016 RMK A01 T00921002  RH  052%=      5-min Rain = 0
KCH1 170642Z 15003KT 09/M00 A3016 RMK A01 T00921002  RH  052%=      5-min Rain = 0
KCH1 170643Z 15002KT 09/M00 A3016 RMK A01 T00921002  RH  052%=      5-min Rain = 0
KCH1 170644Z 15003KT 09/M00 A3016 RMK A01 T00921002  RH  052%=      5-min Rain = 0
KCH1 170645Z 15003KT 09/M00 A3016 RMK A01 T00921003  RH  052%=      5-min Rain = 0
KCH1 170646Z 15003KT 09/M00 A3016 RMK A01 T00921003  RH  052%=      5-min Rain = 0
KCH1 170647Z 15002KT 09/M00 A3016 RMK A01 T00921003  RH  052%=      5-min Rain = 0
KCH1 170648Z 15003KT 09/M00 A3016 RMK A01 T00921002  RH  052%=      5-min Rain = 0
KCH1 170649Z 15003KT 09/M00 A3016 RMK A01 T00921002  RH  052%=      5-min Rain = 0
KCH1 170650Z 16002KT 09/M00 A3016 RMK A01 T00921002  RH  052%=      5-min Rain = 0
KCH1 170651Z 15003KT 09/M00 A3016 RMK A01 T00921002  RH  052%=      5-min Rain = 0
KCH1 170652Z 15003KT 09/M00 A3016 RMK A01 T00921002  RH  052%=      5-min Rain = 0
KCH1 170653Z 16002KT 09/M00 A3016 RMK A01 T00921002  RH  052%=      5-min Rain = 0
KCH1 170654Z 15002KT 09/M00 A3016 RMK A01 T00921002  RH  052%=      5-min Rain = 0
KCH1 170655Z 15002KT 09/M00 A3016 RMK A01 T00921003  RH  052%=      5-min Rain = 0
KCH1 170656Z 15002KT 09/M00 A3016 RMK A01 T00921003  RH  052%=      5-min Rain = 0
KCH1 170657Z 15002KT 09/M00 A3016 RMK A01 T00921003  RH  052%=      5-min Rain = 0
KCH1 170658Z 14002KT 09/M00 A3016 RMK A01 T00921003  RH  051%=      5-min Rain = 0
KCH1 170659Z 14002KT 09/M00 A3016 RMK A01 T00921003  RH  051%=      5-min Rain = 0
KCH1 170700Z 14002KT 09/M00 A3016 RMK A01 T00921002  RH  052%=      5-min Rain = 0
KCH1 170701Z 14002KT 09/M00 A3016 RMK A01 T00911002  RH  052%=      5-min Rain = 0
KCH1 170702Z 13002KT 09/M00 A3016 RMK A01 T00901002  RH  052%=      5-min Rain = 0
KCH1 170703Z 12002KT 09/M00 A3015 RMK A01 T00901002  RH  052%=      5-min Rain = 0
KCH1 170704Z 12002KT 09/M00 A3015 RMK A01 T00891002  RH  053%=      5-min Rain = 0
KCH1 170705Z 12001KT 09/M00 A3015 RMK A01 T00881002  RH  053%=      5-min Rain = 0
KCH1 170706Z 11002KT 09/M00 A3015 RMK A01 T00871002  RH  054%=      5-min Rain = 0
KCH1 170707Z 11001KT 09/M00 A3015 RMK A01 T00851003  RH  054%=      5-min Rain = 0
KCH1 170708Z 11001KT 09/M00 A3015 RMK A01 T00851003  RH  054%=      5-min Rain = 0
KCH1 170709Z 12002KT 09/M00 A3015 RMK A01 T00851003  RH  054%=      5-min Rain = 0
KCH1 170710Z 12001KT 09/M00 A3015 RMK A01 T00861002  RH  054%=      5-min Rain = 0
KCH1 170711Z 12001KT 09/M00 A3015 RMK A01 T00851002  RH  054%=      5-min Rain = 0
KCH1 170712Z 13002KT 09/M00 A3015 RMK A01 T00851002  RH  054%=      5-min Rain = 0
KCH1 170713Z 12001KT 09/M00 A3015 RMK A01 T00851002  RH  054%=      5-min Rain = 0
KCH1 170714Z 12002KT 09/M00 A3015 RMK A01 T00851002  RH  054%=      5-min Rain = 0
KCH1 170715Z 12002KT 08/M00 A3015 RMK A01 T00841002  RH  055%=      5-min Rain = 0
KCH1 170716Z 11002KT 08/M00 A3015 RMK A01 T00841002  RH  055%=      5-min Rain = 0
KCH1 170717Z 11001KT 08/M00 A3015 RMK A01 T00831002  RH  055%=      5-min Rain = 0
KCH1 170718Z 10001KT 08/M00 A3015 RMK A01 T00811002  RH  056%=      5-min Rain = 0
KCH1 170719Z 10002KT 08/M00 A3015 RMK A01 T00801002  RH  056%=      5-min Rain = 0
KCH1 170720Z 09001KT 08/M00 A3015 RMK A01 T00801002  RH  056%=      5-min Rain = 0
KCH1 170721Z 09002KT 08/M00 A3015 RMK A01 T00801002  RH  056%=      5-min Rain = 0
KCH1 170722Z 10002KT 08/M00 A3015 RMK A01 T00801002  RH  056%=      5-min Rain = 0
KCH1 170723Z 10002KT 08/M00 A3015 RMK A01 T00811002  RH  056%=      5-min Rain = 0
KCH1 170724Z 10002KT 08/M00 A3015 RMK A01 T00801002  RH  056%=      5-min Rain = 0
KCH1 170725Z 11002KT 08/M00 A3015 RMK A01 T00801001  RH  056%=      5-min Rain = 0
KCH1 170726Z 11002KT 08/M00 A3015 RMK A01 T00801002  RH  056%=      5-min Rain = 0
KCH1 170727Z 11002KT 08/M00 A3015 RMK A01 T00791002  RH  057%=      5-min Rain = 0
KCH1 170728Z 11002KT 08/M00 A3015 RMK A01 T00801001  RH  057%=      5-min Rain = 0
KCH1 170729Z 09002KT 08/M00 A3015 RMK A01 T00801002  RH  056%=      5-min Rain = 0
KCH1 170730Z 09002KT 08/M00 A3015 RMK A01 T00811001  RH  056%=      5-min Rain = 0
KCH1 170731Z 09002KT 08/M00 A3015 RMK A01 T00811001  RH  056%=      5-min Rain = 0
KCH1 170732Z 09002KT 08/M00 A3015 RMK A01 T00811001  RH  056%=      5-min Rain = 0
KCH1 170733Z 08002KT 08/M00 A3015 RMK A01 T00801001  RH  056%=      5-min Rain = 0
KCH1 170734Z 08002KT 08/M00 A3015 RMK A01 T00801001  RH  056%=      5-min Rain = 0
KCH1 170735Z 09002KT 08/M00 A3015 RMK A01 T00791001  RH  057%=      5-min Rain = 0
KCH1 170736Z 09002KT 08/M00 A3015 RMK A01 T00771001  RH  057%=      5-min Rain = 0
KCH1 170737Z 10001KT 08/M00 A3015 RMK A01 T00771001  RH  058%=      5-min Rain = 0
KCH1 170738Z 09002KT 08/M00 A3015 RMK A01 T00761001  RH  058%=      5-min Rain = 0
KCH1 170739Z 10002KT 08/M00 A3015 RMK A01 T00771002  RH  058%=      5-min Rain = 0
KCH1 170740Z 09002KT 08/M00 A3015 RMK A01 T00781002  RH  057%=      5-min Rain = 0
KCH1 170741Z 09002KT 08/M00 A3015 RMK A01 T00771002  RH  057%=      5-min Rain = 0
KCH1 170742Z 08002KT 08/M00 A3015 RMK A01 T00781001  RH  057%=      5-min Rain = 0
KCH1 170743Z 09002KT 08/M00 A3015 RMK A01 T00781001  RH  057%=      5-min Rain = 0
KCH1 170744Z 09002KT 08/M00 A3014 RMK A01 T00771002  RH  057%=      5-min Rain = 0
KCH1 170745Z 10002KT 08/M00 A3014 RMK A01 T00771001  RH  057%=      5-min Rain = 0
KCH1 170746Z 11002KT 08/M00 A3014 RMK A01 T00771002  RH  057%=      5-min Rain = 0
KCH1 170747Z 11002KT 08/M00 A3014 RMK A01 T00771001  RH  057%=      5-min Rain = 0
KCH1 170748Z 11003KT 08/M00 A3014 RMK A01 T00771001  RH  058%=      5-min Rain = 0
KCH1 170749Z 11002KT 08/M00 A3014 RMK A01 T00771001  RH  058%=      5-min Rain = 0
KCH1 170750Z 12003KT 08/M00 A3014 RMK A01 T00771001  RH  058%=      5-min Rain = 0
KCH1 170751Z 12003KT 08/M00 A3014 RMK A01 T00761001  RH  058%=      5-min Rain = 0
KCH1 170752Z 11003KT 08/M00 A3014 RMK A01 T00761001  RH  058%=      5-min Rain = 0
KCH1 170753Z 12003KT 08/M00 A3014 RMK A01 T00761001  RH  058%=      5-min Rain = 0
KCH1 170754Z 13003KT 08/M00 A3014 RMK A01 T00761001  RH  058%=      5-min Rain = 0
KCH1 170755Z 13004KT 08/M00 A3014 RMK A01 T00751002  RH  058%=      5-min Rain = 0
KCH1 170756Z 14004KT 08/M00 A3014 RMK A01 T00761002  RH  058%=      5-min Rain = 0
KCH1 170757Z 14003KT 08/M00 A3014 RMK A01 T00771002  RH  058%=      5-min Rain = 0
KCH1 170758Z 14004KT 08/M00 A3014 RMK A01 T00771002  RH  057%=      5-min Rain = 0
KCH1 170759Z 14003KT 08/M00 A3014 RMK A01 T00781002  RH  057%=      5-min Rain = 0
KCH1 170800Z 14004KT 08/M00 A3014 RMK A01 T00781002  RH  057%=      5-min Rain = 0
KCH1 170801Z 15003KT 08/M00 A3014 RMK A01 T00781002  RH  057%=      5-min Rain = 0
KCH1 170802Z 14003KT 08/M00 A3014 RMK A01 T00791002  RH  056%=      5-min Rain = 0
KCH1 170803Z 13003KT 08/M00 A3014 RMK A01 T00801002  RH  056%=      5-min Rain = 0
KCH1 170804Z 13003KT 08/M00 A3014 RMK A01 T00801002  RH  056%=      5-min Rain = 0
KCH1 170805Z 13003KT 08/M00 A3014 RMK A01 T00801001  RH  057%=      5-min Rain = 0
KCH1 170806Z 12003KT 08/M00 A3014 RMK A01 T00791002  RH  057%=      5-min Rain = 0
KCH1 170807Z 12003KT 08/M00 A3014 RMK A01 T00771001  RH  057%=      5-min Rain = 0
KCH1 170808Z 12003KT 08/M00 A3014 RMK A01 T00761002  RH  058%=      5-min Rain = 0
KCH1 170809Z 12003KT 08/M00 A3014 RMK A01 T00761002  RH  058%=      5-min Rain = 0
KCH1 170810Z 12003KT 08/M00 A3014 RMK A01 T00761002  RH  058%=      5-min Rain = 0
KCH1 170811Z 11002KT 08/M00 A3014 RMK A01 T00761002  RH  058%=      5-min Rain = 0
KCH1 170812Z 11002KT 08/M00 A3014 RMK A01 T00761002  RH  058%=      5-min Rain = 0
KCH1 170813Z 10002KT 08/M00 A3014 RMK A01 T00761002  RH  058%=      5-min Rain = 0
KCH1 170814Z 09002KT 08/M00 A3014 RMK A01 T00751002  RH  058%=      5-min Rain = 0
KCH1 170815Z 09002KT 08/M00 A3013 RMK A01 T00761001  RH  058%=      5-min Rain = 0
KCH1 170816Z 08003KT 08/M00 A3013 RMK A01 T00761001  RH  058%=      5-min Rain = 0
KCH1 170817Z 08002KT 08/M00 A3013 RMK A01 T00761001  RH  058%=      5-min Rain = 0
KCH1 170818Z 10002KT 08/M00 A3013 RMK A01 T00761001  RH  058%=      5-min Rain = 0
KCH1 170819Z 11002KT 08/M00 A3013 RMK A01 T00761002  RH  058%=      5-min Rain = 0
KCH1 170820Z 10002KT 08/M00 A3013 RMK A01 T00761002  RH  058%=      5-min Rain = 0
KCH1 170821Z 10002KT 08/M00 A3013 RMK A01 T00761001  RH  058%=      5-min Rain = 0
KCH1 170822Z 12003KT 08/M00 A3013 RMK A01 T00761001  RH  058%=      5-min Rain = 0
KCH1 170823Z 11002KT 08/M00 A3013 RMK A01 T00751002  RH  058%=      5-min Rain = 0
KCH1 170824Z 11003KT 08/M00 A3013 RMK A01 T00761002  RH  058%=      5-min Rain = 0
KCH1 170825Z 12002KT 08/M00 A3013 RMK A01 T00761002  RH  058%=      5-min Rain = 0
KCH1 170826Z 12002KT 08/M00 A3013 RMK A01 T00761002  RH  058%=      5-min Rain = 0
KCH1 170827Z 13003KT 08/M00 A3013 RMK A01 T00771002  RH  057%=      5-min Rain = 0
KCH1 170828Z 14002KT 08/M00 A3013 RMK A01 T00781002  RH  057%=      5-min Rain = 0
KCH1 170829Z 14002KT 08/M00 A3013 RMK A01 T00781002  RH  057%=      5-min Rain = 0
KCH1 170830Z 13002KT 08/M00 A3013 RMK A01 T00791002  RH  056%=      5-min Rain = 0
KCH1 170831Z 13002KT 08/M00 A3013 RMK A01 T00801003  RH  056%=      5-min Rain = 0
KCH1 170832Z 13002KT 08/M00 A3013 RMK A01 T00801003  RH  056%=      5-min Rain = 0
KCH1 170833Z 12003KT 08/M00 A3013 RMK A01 T00801003  RH  056%=      5-min Rain = 0
KCH1 170834Z 12003KT 08/M00 A3013 RMK A01 T00801003  RH  056%=      5-min Rain = 0
KCH1 170835Z 15002KT 08/M00 A3013 RMK A01 T00801002  RH  056%=      5-min Rain = 0
KCH1 170836Z 18003KT 08/M00 A3013 RMK A01 T00791003  RH  056%=      5-min Rain = 0
KCH1 170837Z 15003KT 08/M00 A3013 RMK A01 T00791004  RH  056%=      5-min Rain = 0
KCH1 170838Z 14002KT 08/M00 A3013 RMK A01 T00811004  RH  055%=      5-min Rain = 0
KCH1 170839Z 14003KT 08/M00 A3013 RMK A01 T00821003  RH  055%=      5-min Rain = 0
KCH1 170840Z 12002KT 08/M00 A3013 RMK A01 T00831002  RH  055%=      5-min Rain = 0
KCH1 170841Z 12001KT 08/M00 A3013 RMK A01 T00821002  RH  055%=      5-min Rain = 0
KCH1 170842Z 11002KT 08/M00 A3013 RMK A01 T00821002  RH  055%=      5-min Rain = 0
KCH1 170843Z 13002KT 08/M00 A3012 RMK A01 T00811002  RH  056%=      5-min Rain = 0
KCH1 170844Z 13003KT 08/M00 A3012 RMK A01 T00801004  RH  055%=      5-min Rain = 0
KCH1 170845Z 14003KT 08/M00 A3012 RMK A01 T00811004  RH  055%=      5-min Rain = 0
KCH1 170846Z 13003KT 08/M00 A3012 RMK A01 T00831004  RH  054%=      5-min Rain = 0
KCH1 170847Z 13003KT 08/M00 A3012 RMK A01 T00831004  RH  054%=      5-min Rain = 0
KCH1 170848Z 13003KT 08/M00 A3012 RMK A01 T00821003  RH  055%=      5-min Rain = 0
KCH1 170849Z 13003KT 08/M00 A3012 RMK A01 T00811003  RH  055%=      5-min Rain = 0
KCH1 170850Z 12003KT 08/M00 A3012 RMK A01 T00801003  RH  056%=      5-min Rain = 0
KCH1 170851Z 10004KT 08/M00 A3012 RMK A01 T00801003  RH  056%=      5-min Rain = 0
KCH1 170852Z 10004KT 08/M00 A3012 RMK A01 T00791003  RH  056%=      5-min Rain = 0
KCH1 170853Z 11004KT 08/M00 A3012 RMK A01 T00781003  RH  057%=      5-min Rain = 0
KCH1 170854Z 10004KT 08/M00 A3012 RMK A01 T00781003  RH  057%=      5-min Rain = 0
KCH1 170855Z 10004KT 08/M00 A3012 RMK A01 T00771002  RH  057%=      5-min Rain = 0
KCH1 170856Z 10004KT 08/M00 A3012 RMK A01 T00771002  RH  057%=      5-min Rain = 0
KCH1 170857Z 10004KT 08/M00 A3012 RMK A01 T00761002  RH  058%=      5-min Rain = 0
KCH1 170858Z 11004KT 08/M00 A3012 RMK A01 T00751002  RH  058%=      5-min Rain = 0
KCH1 170859Z 11004KT 08/M00 A3012 RMK A01 T00751002  RH  058%=      5-min Rain = 0
KCH1 170900Z 12004KT 07/M00 A3012 RMK A01 T00741002  RH  059%=      5-min Rain = 0
KCH1 170901Z 12003KT 07/M00 A3012 RMK A01 T00731002  RH  059%=      5-min Rain = 0
KCH1 170902Z 12003KT 07/M00 A3012 RMK A01 T00731002  RH  059%=      5-min Rain = 0
KCH1 170903Z 12003KT 07/M00 A3012 RMK A01 T00731003  RH  059%=      5-min Rain = 0
KCH1 170904Z 13003KT 07/M00 A3012 RMK A01 T00741003  RH  058%=      5-min Rain = 0
KCH1 170905Z 13003KT 08/M00 A3012 RMK A01 T00751003  RH  058%=      5-min Rain = 0
KCH1 170906Z 13003KT 08/M00 A3012 RMK A01 T00761003  RH  057%=      5-min Rain = 0
KCH1 170907Z 14005KT 08/M00 A3012 RMK A01 T00761003  RH  057%=      5-min Rain = 0
KCH1 170908Z 14004KT 08/M00 A3012 RMK A01 T00781003  RH  056%=      5-min Rain = 0
KCH1 170909Z 14003KT 08/M00 A3012 RMK A01 T00791003  RH  056%=      5-min Rain = 0
KCH1 170910Z 14004KT 08/M00 A3012 RMK A01 T00791003  RH  056%=      5-min Rain = 0
KCH1 170911Z 15004KT 08/M00 A3012 RMK A01 T00791004  RH  056%=      5-min Rain = 0
KCH1 170912Z 15004KT 08/M00 A3012 RMK A01 T00801003  RH  056%=      5-min Rain = 0
KCH1 170913Z 14004KT 08/M00 A3012 RMK A01 T00781002  RH  057%=      5-min Rain = 0
KCH1 170914Z 15004KT 08/M00 A3012 RMK A01 T00781002  RH  057%=      5-min Rain = 0
KCH1 170915Z 14004KT 08/M00 A3012 RMK A01 T00781003  RH  057%=      5-min Rain = 0
KCH1 170916Z 15005KT 08/M00 A3012 RMK A01 T00791003  RH  056%=      5-min Rain = 0
KCH1 170917Z 15004KT 08/M00 A3011 RMK A01 T00791003  RH  056%=      5-min Rain = 0
KCH1 170918Z 15005KT 08/M00 A3011 RMK A01 T00801003  RH  056%=      5-min Rain = 0
KCH1 170919Z 15004KT 08/M00 A3011 RMK A01 T00801002  RH  056%=      5-min Rain = 0
KCH1 170920Z 15004KT 08/M00 A3011 RMK A01 T00801002  RH  056%=      5-min Rain = 0
KCH1 170921Z 15004KT 08/M00 A3011 RMK A01 T00801002  RH  056%=      5-min Rain = 0
KCH1 170922Z 15004KT 08/M00 A3011 RMK A01 T00801002  RH  056%=      5-min Rain = 0
KCH1 170923Z 14003KT 08/M00 A3011 RMK A01 T00811002  RH  056%=      5-min Rain = 0
KCH1 170924Z 15004KT 08/M00 A3011 RMK A01 T00811002  RH  056%=      5-min Rain = 0
KCH1 170925Z 14004KT 08/M00 A3011 RMK A01 T00811001  RH  056%=      5-min Rain = 0
KCH1 170926Z 14004KT 08/M00 A3011 RMK A01 T00811002  RH  056%=      5-min Rain = 0
KCH1 170927Z 14003KT 08/M00 A3011 RMK A01 T00801001  RH  056%=      5-min Rain = 0
KCH1 170928Z 14003KT 08/M00 A3011 RMK A01 T00791001  RH  057%=      5-min Rain = 0
KCH1 170929Z 14003KT 08/M00 A3011 RMK A01 T00781001  RH  057%=      5-min Rain = 0
KCH1 170930Z 13003KT 08/M00 A3011 RMK A01 T00771002  RH  058%=      5-min Rain = 0
KCH1 170931Z 13002KT 08/M00 A3011 RMK A01 T00761002  RH  058%=      5-min Rain = 0
KCH1 170932Z 13002KT 08/M00 A3011 RMK A01 T00761002  RH  058%=      5-min Rain = 0
KCH1 170933Z 13002KT 08/M00 A3011 RMK A01 T00751002  RH  058%=      5-min Rain = 0
KCH1 170934Z 12002KT 07/M00 A3011 RMK A01 T00741002  RH  059%=      5-min Rain = 0
KCH1 170935Z 12002KT 07/M00 A3011 RMK A01 T00741002  RH  059%=      5-min Rain = 0
KCH1 170936Z 13002KT 07/M00 A3011 RMK A01 T00731002  RH  059%=      5-min Rain = 0
KCH1 170937Z 13002KT 07/M00 A3011 RMK A01 T00731002  RH  059%=      5-min Rain = 0
KCH1 170938Z 13002KT 07/M00 A3011 RMK A01 T00731002  RH  059%=      5-min Rain = 0
KCH1 170939Z 13002KT 07/M00 A3011 RMK A01 T00731002  RH  059%=      5-min Rain = 0
KCH1 170940Z 14002KT 07/M00 A3011 RMK A01 T00731002  RH  059%=      5-min Rain = 0
KCH1 170941Z 14002KT 07/M00 A3011 RMK A01 T00731003  RH  059%=      5-min Rain = 0
KCH1 170942Z 14002KT 08/M00 A3011 RMK A01 T00751002  RH  058%=      5-min Rain = 0
KCH1 170943Z 14002KT 08/M00 A3011 RMK A01 T00751003  RH  058%=      5-min Rain = 0
KCH1 170944Z 13002KT 08/M00 A3011 RMK A01 T00761003  RH  057%=      5-min Rain = 0
KCH1 170945Z 13002KT 08/M00 A3011 RMK A01 T00771003  RH  057%=      5-min Rain = 0
KCH1 170946Z 13002KT 08/M00 A3011 RMK A01 T00781003  RH  057%=      5-min Rain = 0
KCH1 170947Z 13002KT 08/M00 A3011 RMK A01 T00781003  RH  057%=      5-min Rain = 0
KCH1 170948Z 13002KT 08/M00 A3011 RMK A01 T00781003  RH  057%=      5-min Rain = 0
KCH1 170949Z 13003KT 08/M00 A3011 RMK A01 T00781003  RH  056%=      5-min Rain = 0
KCH1 170950Z 14003KT 08/M00 A3011 RMK A01 T00781003  RH  056%=      5-min Rain = 0
KCH1 170951Z 14003KT 08/M00 A3011 RMK A01 T00781003  RH  056%=      5-min Rain = 0
KCH1 170952Z 14003KT 08/M00 A3011 RMK A01 T00791003  RH  056%=      5-min Rain = 0
KCH1 170953Z 15004KT 08/M00 A3011 RMK A01 T00791003  RH  056%=      5-min Rain = 0
KCH1 170954Z 15004KT 08/M00 A3011 RMK A01 T00791003  RH  056%=      5-min Rain = 0
KCH1 170955Z 15004KT 08/M00 A3011 RMK A01 T00791003  RH  056%=      5-min Rain = 0
KCH1 170956Z 15004KT 08/M00 A3011 RMK A01 T00791003  RH  056%=      5-min Rain = 0
KCH1 170957Z 15005KT 08/M00 A3011 RMK A01 T00791003  RH  056%=      5-min Rain = 0
KCH1 170958Z 16005KT 08/M00 A3011 RMK A01 T00791003  RH  056%=      5-min Rain = 0
KCH1 170959Z 16005KT 08/M00 A3011 RMK A01 T00791003  RH  056%=      5-min Rain = 0
KCH1 171000Z 16006KT 08/M00 A3011 RMK A01 T00791003  RH  056%=      5-min Rain = 0
KCH1 171001Z 16006KT 08/M00 A3011 RMK A01 T00791003  RH  056%=      5-min Rain = 0
KCH1 171002Z 16005KT 08/M00 A3011 RMK A01 T00781003  RH  056%=      5-min Rain = 0
KCH1 171003Z 16005KT 08/M00 A3011 RMK A01 T00781003  RH  057%=      5-min Rain = 0
KCH1 171004Z 16005KT 08/M00 A3011 RMK A01 T00781003  RH  057%=      5-min Rain = 0
KCH1 171005Z 16005KT 08/M00 A3011 RMK A01 T00781003  RH  057%=      5-min Rain = 0
KCH1 171006Z 16005KT 08/M00 A3011 RMK A01 T00781003  RH  057%=      5-min Rain = 0
KCH1 171007Z 15005KT 08/M00 A3011 RMK A01 T00781003  RH  057%=      5-min Rain = 0
KCH1 171008Z 15006KT 08/M00 A3011 RMK A01 T00781003  RH  057%=      5-min Rain = 0
KCH1 171009Z 16005KT 08/M00 A3011 RMK A01 T00781003  RH  057%=      5-min Rain = 0
KCH1 171010Z 16005KT 08/M00 A301 RMK A01 T00781003  RH  057%=      5-min Rain = 0
KCH1 171011Z 16005KT 08/M00 A301 RMK A01 T00781003  RH  056%=      5-min Rain = 0
KCH1 171012Z 16005KT 08/M00 A301 RMK A01 T00791003  RH  056%=      5-min Rain = 0
KCH1 171013Z 16005KT 08/M00 A301 RMK A01 T00791003  RH  056%=      5-min Rain = 0
KCH1 171014Z 16005KT 08/M00 A301 RMK A01 T00791003  RH  056%=      5-min Rain = 0
KCH1 171015Z 16005KT 08/M00 A301 RMK A01 T00791003  RH  056%=      5-min Rain = 0
KCH1 171016Z 16005KT 08/M00 A301 RMK A01 T00791003  RH  056%=      5-min Rain = 0
KCH1 171017Z 16005KT 08/M00 A301 RMK A01 T00791003  RH  056%=      5-min Rain = 0
KCH1 171018Z 16005KT 08/M00 A301 RMK A01 T00791003  RH  056%=      5-min Rain = 0
KCH1 171019Z 16005KT 08/M00 A301 RMK A01 T00791002  RH  056%=      5-min Rain = 0
KCH1 171020Z 16004KT 08/M00 A301 RMK A01 T00791002  RH  056%=      5-min Rain = 0
KCH1 171021Z 16004KT 08/M00 A301 RMK A01 T00791002  RH  057%=      5-min Rain = 0
KCH1 171022Z 16004KT 08/M00 A301 RMK A01 T00791003  RH  056%=      5-min Rain = 0
KCH1 171023Z 16004KT 08/M00 A301 RMK A01 T00781003  RH  056%=      5-min Rain = 0
KCH1 171024Z 16004KT 08/M00 A301 RMK A01 T00791003  RH  056%=      5-min Rain = 0
KCH1 171025Z 16004KT 08/M00 A301 RMK A01 T00791003  RH  056%=      5-min Rain = 0
KCH1 171026Z 16004KT 08/M00 A301 RMK A01 T00791003  RH  056%=      5-min Rain = 0
KCH1 171027Z 16003KT 08/M00 A301 RMK A01 T00791003  RH  056%=      5-min Rain = 0
KCH1 171028Z 16003KT 08/M00 A301 RMK A01 T00781001  RH  057%=      5-min Rain = 0
KCH1 171029Z 15003KT 08/M00 A301 RMK A01 T00771001  RH  058%=      5-min Rain = 0
KCH1 171030Z 16003KT 08/M00 A301 RMK A01 T00751001  RH  059%=      5-min Rain = 0
KCH1 171031Z 16003KT 07/00 A301 RMK A01 T007400-0  RH  059%=      5-min Rain = 0
KCH1 171032Z 16003KT 07/00 A301 RMK A01 T007200-0  RH  060%=      5-min Rain = 0
KCH1 171033Z 15002KT 07/00 A301 RMK A01 T007000-0  RH  061%=      5-min Rain = 0
KCH1 171034Z 16002KT 07/00 A301 RMK A01 T006900-0  RH  062%=      5-min Rain = 0
KCH1 171035Z 15002KT 07/00 A301 RMK A01 T006800-0  RH  062%=      5-min Rain = 0
KCH1 171036Z 16002KT 07/M00 A301 RMK A01 T00671001  RH  062%=      5-min Rain = 0
KCH1 171037Z 15002KT 07/M00 A301 RMK A01 T00671001  RH  062%=      5-min Rain = 0
KCH1 171038Z 16001KT 07/00 A301 RMK A01 T006700-0  RH  062%=      5-min Rain = 0
KCH1 171039Z 15001KT 07/00 A301 RMK A01 T006700-0  RH  062%=      5-min Rain = 0
KCH1 171040Z 16001KT 07/00 A301 RMK A01 T006600-0  RH  062%=      5-min Rain = 0
KCH1 171041Z 15002KT 07/M00 A301 RMK A01 T00661001  RH  062%=      5-min Rain = 0
KCH1 171042Z 16001KT 07/M00 A301 RMK A01 T00661001  RH  062%=      5-min Rain = 0
KCH1 171043Z 15001KT 07/M00 A301 RMK A01 T00661001  RH  062%=      5-min Rain = 0
KCH1 171044Z 14000KT 07/M00 A301 RMK A01 T00671001  RH  062%=      5-min Rain = 0
KCH1 171045Z 13001KT 07/M00 A301 RMK A01 T00671001  RH  062%=      5-min Rain = 0
KCH1 171046Z 13000KT 07/M00 A301 RMK A01 T00671001  RH  062%=      5-min Rain = 0
KCH1 171047Z 14001KT 07/M00 A301 RMK A01 T00681001  RH  061%=      5-min Rain = 0
KCH1 171048Z 13001KT 07/M00 A301 RMK A01 T00681002  RH  061%=      5-min Rain = 0
KCH1 171049Z 13001KT 07/M00 A301 RMK A01 T00681001  RH  061%=      5-min Rain = 0
KCH1 171050Z 11000KT 07/M00 A301 RMK A01 T00681002  RH  061%=      5-min Rain = 0
KCH1 171051Z 13001KT 07/M00 A301 RMK A01 T00681001  RH  061%=      5-min Rain = 0
KCH1 171052Z 12001KT 07/M00 A301 RMK A01 T00691001  RH  061%=      5-min Rain = 0
KCH1 171053Z 11001KT 07/M00 A301 RMK A01 T00681001  RH  061%=      5-min Rain = 0
KCH1 171054Z 11001KT 07/M00 A301 RMK A01 T00681001  RH  062%=      5-min Rain = 0
KCH1 171055Z 11001KT 07/00 A301 RMK A01 T006700-0  RH  062%=      5-min Rain = 0
KCH1 171056Z 11002KT 07/00 A301 RMK A01 T006600-0  RH  062%=      5-min Rain = 0
KCH1 171057Z 10002KT 07/00 A301 RMK A01 T006600-0  RH  063%=      5-min Rain = 0
KCH1 171058Z 10002KT 07/00 A301 RMK A01 T006500-0  RH  063%=      5-min Rain = 0
KCH1 171059Z 10002KT 06/00 A301 RMK A01 T006400-0  RH  063%=      5-min Rain = 0
KCH1 171100Z 10002KT 06/00 A301 RMK A01 T006400-0  RH  063%=      5-min Rain = 0
KCH1 171101Z 10002KT 06/00 A301 RMK A01 T006400-0  RH  064%=      5-min Rain = 0
KCH1 171102Z 11002KT 06/00 A301 RMK A01 T00640000  RH  064%=      5-min Rain = 0
KCH1 171103Z 12002KT 06/00 A301 RMK A01 T00630000  RH  064%=      5-min Rain = 0
KCH1 171104Z 12002KT 06/00 A301 RMK A01 T00620000  RH  064%=      5-min Rain = 0
KCH1 171105Z 12002KT 06/00 A301 RMK A01 T00620000  RH  065%=      5-min Rain = 0
KCH1 171106Z 13002KT 06/00 A301 RMK A01 T006200-0  RH  064%=      5-min Rain = 0
KCH1 171107Z 13002KT 06/M00 A301 RMK A01 T00631001  RH  064%=      5-min Rain = 0
KCH1 171108Z 14003KT 06/M00 A301 RMK A01 T00641001  RH  063%=      5-min Rain = 0
KCH1 171109Z 14003KT 07/00 A301 RMK A01 T006500-0  RH  063%=      5-min Rain = 0
KCH1 171110Z 14003KT 07/M00 A301 RMK A01 T00661001  RH  062%=      5-min Rain = 0
KCH1 171111Z 15004KT 07/M00 A301 RMK A01 T00661001  RH  062%=      5-min Rain = 0
KCH1 171112Z 15004KT 07/M00 A301 RMK A01 T00671001  RH  062%=      5-min Rain = 0
KCH1 171113Z 15005KT 07/M00 A301 RMK A01 T00671001  RH  062%=      5-min Rain = 0
KCH1 171114Z 15005KT 07/M00 A301 RMK A01 T00671001  RH  062%=      5-min Rain = 0
KCH1 171115Z 15005KT 07/M00 A301 RMK A01 T00681001  RH  062%=      5-min Rain = 0
KCH1 171116Z 15005KT 07/M00 A301 RMK A01 T00681001  RH  061%=      5-min Rain = 0
KCH1 171117Z 15005KT 07/M00 A301 RMK A01 T00681001  RH  061%=      5-min Rain = 0
KCH1 171118Z 15005KT 07/M00 A301 RMK A01 T00681001  RH  061%=      5-min Rain = 0
KCH1 171119Z 16006KT 07/00 A301 RMK A01 T006800-0  RH  061%=      5-min Rain = 0
KCH1 171120Z 16006KT 07/00 A301 RMK A01 T006800-0  RH  061%=      5-min Rain = 0
KCH1 171121Z 16005KT 07/00 A301 RMK A01 T006800-0  RH  062%=      5-min Rain = 0
KCH1 171122Z 16005KT 07/00 A301 RMK A01 T006900-0  RH  061%=      5-min Rain = 0
KCH1 171123Z 16005KT 07/00 A301 RMK A01 T006900-0  RH  061%=      5-min Rain = 0
KCH1 171124Z 16004KT 07/00 A301 RMK A01 T006900-0  RH  061%=      5-min Rain = 0
KCH1 171125Z 15004KT 07/00 A301 RMK A01 T007000-0  RH  061%=      5-min Rain = 0
KCH1 171126Z 15004KT 07/00 A301 RMK A01 T007100-0  RH  061%=      5-min Rain = 0
KCH1 171127Z 15004KT 07/00 A301 RMK A01 T00710000  RH  061%=      5-min Rain = 0
KCH1 171128Z 15004KT 07/00 A301 RMK A01 T00710000  RH  061%=      5-min Rain = 0
KCH1 171129Z 15004KT 07/00 A301 RMK A01 T00710002  RH  062%=      5-min Rain = 0
KCH1 171130Z 15003KT 07/00 A301 RMK A01 T00690002  RH  062%=      5-min Rain = 0
KCH1 171131Z 16003KT 07/00 A301 RMK A01 T00670003  RH  064%=      5-min Rain = 0
KCH1 171132Z 16003KT 06/00 A301 RMK A01 T00640002  RH  065%=      5-min Rain = 0
KCH1 171133Z 15003KT 06/00 A301 RMK A01 T00620002  RH  065%=      5-min Rain = 0
KCH1 171134Z 16003KT 06/00 A301 RMK A01 T00620002  RH  065%=      5-min Rain = 0
KCH1 171135Z 15003KT 06/00 A301 RMK A01 T00620002  RH  065%=      5-min Rain = 0
KCH1 171136Z 15003KT 06/00 A301 RMK A01 T00620002  RH  065%=      5-min Rain = 0
KCH1 171137Z 15003KT 06/00 A301 RMK A01 T00620002  RH  065%=      5-min Rain = 0
KCH1 171138Z 16003KT 06/00 A301 RMK A01 T00620002  RH  065%=      5-min Rain = 0
KCH1 171139Z 15004KT 06/00 A301 RMK A01 T00630002  RH  065%=      5-min Rain = 0
KCH1 171140Z 16004KT 06/00 A301 RMK A01 T00630002  RH  065%=      5-min Rain = 0
KCH1 171141Z 16004KT 06/00 A301 RMK A01 T00630002  RH  065%=      5-min Rain = 0
KCH1 171142Z 16005KT 06/00 A301 RMK A01 T00630002  RH  065%=      5-min Rain = 0
KCH1 171143Z 16005KT 06/00 A301 RMK A01 T00640002  RH  065%=      5-min Rain = 0
KCH1 171144Z 16005KT 06/00 A301 RMK A01 T00640002  RH  065%=      5-min Rain = 0
KCH1 171145Z 16005KT 06/00 A301 RMK A01 T00640002  RH  064%=      5-min Rain = 0
KCH1 171146Z 16005KT 07/00 A301 RMK A01 T00650002  RH  064%=      5-min Rain = 0
KCH1 171147Z 16004KT 07/00 A301 RMK A01 T00660002  RH  064%=      5-min Rain = 0
KCH1 171148Z 16004KT 07/00 A301 RMK A01 T00670002  RH  063%=      5-min Rain = 0
KCH1 171149Z 16005KT 07/00 A301 RMK A01 T00680002  RH  063%=      5-min Rain = 0
KCH1 171150Z 17005KT 07/00 A301 RMK A01 T00680002  RH  063%=      5-min Rain = 0
KCH1 171151Z 17005KT 07/00 A301 RMK A01 T00680002  RH  063%=      5-min Rain = 0
KCH1 171152Z 17005KT 07/00 A301 RMK A01 T00690002  RH  063%=      5-min Rain = 0
KCH1 171153Z 17005KT 07/00 A301 RMK A01 T00690002  RH  062%=      5-min Rain = 0
KCH1 171154Z 17004KT 07/00 A301 RMK A01 T00690002  RH  062%=      5-min Rain = 0
KCH1 171155Z 17004KT 07/00 A301 RMK A01 T00690002  RH  062%=      5-min Rain = 0
KCH1 171156Z 17005KT 07/00 A301 RMK A01 T00690002  RH  062%=      5-min Rain = 0
KCH1 171157Z 17005KT 07/00 A301 RMK A01 T00700002  RH  062%=      5-min Rain = 0
KCH1 171158Z 17005KT 07/00 A301 RMK A01 T00690002  RH  062%=      5-min Rain = 0
KCH1 171159Z 16005KT 07/00 A301 RMK A01 T00690003  RH  062%=      5-min Rain = 0
KCH1 171200Z 17005KT 07/00 A301 RMK A01 T00690003  RH  063%=      5-min Rain = 0
KCH1 171201Z 17005KT 07/00 A301 RMK A01 T00700003  RH  063%=      5-min Rain = 0
KCH1 171202Z 17005KT 07/00 A301 RMK A01 T00700003  RH  063%=      5-min Rain = 0
KCH1 171203Z 17005KT 07/00 A301 RMK A01 T00700003  RH  063%=      5-min Rain = 0
KCH1 171204Z 17005KT 07/00 A301 RMK A01 T00690003  RH  063%=      5-min Rain = 0
KCH1 171205Z 17005KT 07/00 A301 RMK A01 T00690003  RH  063%=      5-min Rain = 0
KCH1 171206Z 16005KT 07/00 A301 RMK A01 T00690003  RH  063%=      5-min Rain = 0
KCH1 171207Z 17005KT 07/00 A301 RMK A01 T00690004  RH  063%=      5-min Rain = 0
KCH1 171208Z 17006KT 07/00 A301 RMK A01 T00690004  RH  063%=      5-min Rain = 0
KCH1 171209Z 17006KT 07/00 A301 RMK A01 T00690004  RH  063%=      5-min Rain = 0
KCH1 171210Z 17005KT 07/00 A301 RMK A01 T00690004  RH  063%=      5-min Rain = 0
KCH1 171211Z 17005KT 07/00 A301 RMK A01 T00690004  RH  063%=      5-min Rain = 0
KCH1 171212Z 16005KT 07/00 A301 RMK A01 T00690004  RH  063%=      5-min Rain = 0
KCH1 171213Z 16005KT 07/00 A3009 RMK A01 T00690004  RH  063%=      5-min Rain = 0
KCH1 171214Z 16005KT 07/00 A3009 RMK A01 T00680004  RH  063%=      5-min Rain = 0
KCH1 171215Z 16004KT 07/00 A3009 RMK A01 T00690004  RH  063%=      5-min Rain = 0
KCH1 171216Z 16004KT 07/00 A3009 RMK A01 T00680004  RH  063%=      5-min Rain = 0
KCH1 171217Z 16005KT 07/00 A3009 RMK A01 T00680004  RH  063%=      5-min Rain = 0
KCH1 171218Z 16005KT 07/00 A3009 RMK A01 T00680004  RH  063%=      5-min Rain = 0
KCH1 171219Z 16004KT 07/00 A3009 RMK A01 T00690004  RH  063%=      5-min Rain = 0
KCH1 171220Z 15004KT 07/00 A3009 RMK A01 T00690004  RH  063%=      5-min Rain = 0
KCH1 171221Z 15004KT 07/01 A3009 RMK A01 T00690005  RH  063%=      5-min Rain = 0
KCH1 171222Z 15005KT 07/01 A3009 RMK A01 T00690005  RH  064%=      5-min Rain = 0
KCH1 171223Z 15003KT 07/01 A3009 RMK A01 T00680005  RH  064%=      5-min Rain = 0
KCH1 171224Z 16004KT 07/01 A3009 RMK A01 T00670005  RH  065%=      5-min Rain = 0
KCH1 171225Z 16004KT 07/01 A3009 RMK A01 T00660005  RH  065%=      5-min Rain = 0
KCH1 171226Z 15004KT 07/01 A3009 RMK A01 T00650005  RH  065%=      5-min Rain = 0
KCH1 171227Z 16004KT 06/01 A3009 RMK A01 T00640005  RH  066%=      5-min Rain = 0
KCH1 171228Z 16004KT 06/01 A3009 RMK A01 T00640005  RH  066%=      5-min Rain = 0
KCH1 171229Z 15004KT 06/01 A3009 RMK A01 T00640005  RH  066%=      5-min Rain = 0
KCH1 171230Z 16004KT 06/01 A3009 RMK A01 T00640005  RH  066%=      5-min Rain = 0
KCH1 171231Z 16004KT 07/01 A3009 RMK A01 T00650005  RH  066%=      5-min Rain = 0
KCH1 171232Z 16004KT 07/01 A3009 RMK A01 T00650005  RH  065%=      5-min Rain = 0
KCH1 171233Z 16003KT 07/01 A3009 RMK A01 T00660005  RH  065%=      5-min Rain = 0
KCH1 171234Z 16005KT 07/01 A3009 RMK A01 T00660005  RH  065%=      5-min Rain = 0
KCH1 171235Z 16004KT 07/01 A3009 RMK A01 T00670005  RH  065%=      5-min Rain = 0
KCH1 171236Z 16004KT 07/01 A3009 RMK A01 T00670006  RH  065%=      5-min Rain = 0
KCH1 171237Z 16004KT 07/01 A3009 RMK A01 T00670006  RH  065%=      5-min Rain = 0
KCH1 171238Z 16005KT 07/01 A3009 RMK A01 T00680006  RH  065%=      5-min Rain = 0
KCH1 171239Z 16004KT 07/01 A3009 RMK A01 T00680006  RH  065%=      5-min Rain = 0
KCH1 171240Z 16004KT 07/01 A3009 RMK A01 T00680006  RH  065%=      5-min Rain = 0
KCH1 171241Z 16003KT 07/01 A3009 RMK A01 T00680006  RH  065%=      5-min Rain = 0
KCH1 171242Z 16004KT 07/01 A3009 RMK A01 T00680006  RH  065%=      5-min Rain = 0
KCH1 171243Z 16003KT 07/01 A3009 RMK A01 T00690007  RH  065%=      5-min Rain = 0
KCH1 171244Z 16003KT 07/01 A3009 RMK A01 T00690006  RH  064%=      5-min Rain = 0
KCH1 171245Z 16003KT 07/01 A3009 RMK A01 T00690006  RH  064%=      5-min Rain = 0
KCH1 171246Z 16003KT 07/01 A3009 RMK A01 T00690007  RH  064%=      5-min Rain = 0
KCH1 171247Z 15003KT 07/01 A3009 RMK A01 T00690007  RH  064%=      5-min Rain = 0
KCH1 171248Z 15003KT 07/01 A3009 RMK A01 T00690007  RH  064%=      5-min Rain = 0
KCH1 171249Z 15003KT 07/01 A3009 RMK A01 T00690007  RH  065%=      5-min Rain = 0
KCH1 171250Z 15003KT 07/01 A3009 RMK A01 T00690007  RH  065%=      5-min Rain = 0
KCH1 171251Z 15003KT 07/01 A3009 RMK A01 T00690007  RH  065%=      5-min Rain = 0
KCH1 171252Z 15003KT 07/01 A3009 RMK A01 T00690007  RH  065%=      5-min Rain = 0
KCH1 171253Z 15002KT 07/01 A3009 RMK A01 T00690007  RH  065%=      5-min Rain = 0
KCH1 171254Z 15003KT 07/01 A3009 RMK A01 T00690007  RH  065%=      5-min Rain = 0
KCH1 171255Z 14004KT 07/01 A3009 RMK A01 T00690007  RH  065%=      5-min Rain = 0
KCH1 171256Z 15004KT 07/01 A3009 RMK A01 T00690007  RH  065%=      5-min Rain = 0
KCH1 171257Z 15004KT 07/01 A3008 RMK A01 T00690008  RH  065%=      5-min Rain = 0
KCH1 171258Z 15004KT 07/01 A3008 RMK A01 T00690008  RH  065%=      5-min Rain = 0
KCH1 171259Z 15005KT 07/01 A3008 RMK A01 T00690009  RH  065%=      5-min Rain = 0
KCH1 171300Z 16005KT 07/01 A3008 RMK A01 T00690009  RH  066%=      5-min Rain = 0
KCH1 171301Z 16005KT 07/01 A3008 RMK A01 T00690009  RH  066%=      5-min Rain = 0
KCH1 171302Z 16005KT 07/01 A3008 RMK A01 T00690009  RH  065%=      5-min Rain = 0
KCH1 171303Z 16005KT 07/01 A3008 RMK A01 T00710009  RH  065%=      5-min Rain = 0
KCH1 171304Z 16004KT 07/01 A3008 RMK A01 T00720010  RH  064%=      5-min Rain = 0
KCH1 171305Z 16004KT 07/01 A3008 RMK A01 T00740009  RH  064%=      5-min Rain = 0
KCH1 171306Z 16004KT 08/01 A3008 RMK A01 T00750009  RH  063%=      5-min Rain = 0
KCH1 171307Z 15003KT 08/01 A3008 RMK A01 T00760010  RH  063%=      5-min Rain = 0
KCH1 171308Z 15003KT 08/01 A3008 RMK A01 T00760010  RH  063%=      5-min Rain = 0
KCH1 171309Z 15003KT 08/01 A3008 RMK A01 T00770010  RH  063%=      5-min Rain = 0
KCH1 171310Z 15004KT 08/01 A3008 RMK A01 T00770010  RH  063%=      5-min Rain = 0
KCH1 171311Z 15004KT 08/01 A3008 RMK A01 T00780010  RH  062%=      5-min Rain = 0
KCH1 171312Z 14005KT 08/01 A3008 RMK A01 T00780011  RH  062%=      5-min Rain = 0
KCH1 171313Z 15004KT 08/01 A3008 RMK A01 T00780011  RH  062%=      5-min Rain = 0
KCH1 171314Z 15003KT 08/01 A3008 RMK A01 T00790012  RH  063%=      5-min Rain = 0
KCH1 171315Z 15003KT 08/01 A3008 RMK A01 T00790012  RH  063%=      5-min Rain = 0
KCH1 171316Z 15003KT 08/01 A3008 RMK A01 T00790012  RH  063%=      5-min Rain = 0
KCH1 171317Z 15003KT 08/01 A3008 RMK A01 T00790013  RH  063%=      5-min Rain = 0
KCH1 171318Z 16003KT 08/01 A3008 RMK A01 T00790013  RH  063%=      5-min Rain = 0
KCH1 171319Z 15003KT 08/01 A3008 RMK A01 T00800013  RH  063%=      5-min Rain = 0
KCH1 171320Z 15002KT 08/01 A3008 RMK A01 T00810013  RH  062%=      5-min Rain = 0
KCH1 171321Z 15003KT 08/01 A3008 RMK A01 T00820014  RH  062%=      5-min Rain = 0
KCH1 171322Z 14002KT 08/01 A3008 RMK A01 T00820014  RH  062%=      5-min Rain = 0
KCH1 171323Z 15002KT 08/02 A3008 RMK A01 T00840015  RH  062%=      5-min Rain = 0
KCH1 171324Z 15002KT 08/02 A3008 RMK A01 T00840015  RH  062%=      5-min Rain = 0
KCH1 171325Z 15003KT 09/02 A3008 RMK A01 T00850017  RH  062%=      5-min Rain = 0
KCH1 171326Z 14002KT 09/02 A3008 RMK A01 T00860018  RH  062%=      5-min Rain = 0
KCH1 171327Z 15002KT 09/02 A3008 RMK A01 T00870017  RH  062%=      5-min Rain = 0
KCH1 171328Z 15002KT 09/02 A3008 RMK A01 T00880019  RH  062%=      5-min Rain = 0
KCH1 171329Z 15004KT 09/02 A3008 RMK A01 T00880019  RH  062%=      5-min Rain = 0
KCH1 171330Z 16004KT 09/02 A3008 RMK A01 T00890017  RH  061%=      5-min Rain = 0
KCH1 171331Z 15004KT 09/02 A3008 RMK A01 T00890018  RH  061%=      5-min Rain = 0
KCH1 171332Z 15005KT 09/02 A3008 RMK A01 T00910020  RH  061%=      5-min Rain = 0
KCH1 171333Z 15004KT 09/02 A3008 RMK A01 T00920020  RH  061%=      5-min Rain = 0
KCH1 171334Z 16003KT 09/02 A3008 RMK A01 T00930020  RH  060%=      5-min Rain = 0
KCH1 171335Z 16004KT 09/02 A3008 RMK A01 T00940020  RH  060%=      5-min Rain = 0
KCH1 171336Z 17004KT 10/02 A3008 RMK A01 T00950019  RH  059%=      5-min Rain = 0
KCH1 171337Z 16005KT 10/02 A3008 RMK A01 T00950020  RH  059%=      5-min Rain = 0
KCH1 171338Z 16005KT 10/02 A3008 RMK A01 T00950019  RH  059%=      5-min Rain = 0
KCH1 171339Z 16005KT 10/02 A3008 RMK A01 T00950019  RH  059%=      5-min Rain = 0
KCH1 171340Z 16005KT 10/02 A3008 RMK A01 T00960020  RH  059%=      5-min Rain = 0
KCH1 171341Z 16005KT 10/02 A3008 RMK A01 T00960020  RH  059%=      5-min Rain = 0
KCH1 171342Z 16005KT 10/02 A3008 RMK A01 T00970020  RH  059%=      5-min Rain = 0
KCH1 171343Z 16003KT 10/02 A3009 RMK A01 T00970021  RH  059%=      5-min Rain = 0
KCH1 171344Z 16004KT 10/02 A3009 RMK A01 T00980021  RH  059%=      5-min Rain = 0
KCH1 171345Z 16004KT 10/02 A3009 RMK A01 T00990022  RH  059%=      5-min Rain = 0
KCH1 171346Z 16004KT 10/02 A3009 RMK A01 T01000023  RH  059%=      5-min Rain = 0
KCH1 171347Z 15003KT 10/03 A3009 RMK A01 T01010025  RH  059%=      5-min Rain = 0
KCH1 171348Z 16005KT 10/03 A3009 RMK A01 T01030026  RH  059%=      5-min Rain = 0
KCH1 171349Z 15005KT 10/03 A3009 RMK A01 T01040027  RH  059%=      5-min Rain = 0
KCH1 171350Z 15004KT 11/03 A3009 RMK A01 T01050027  RH  059%=      5-min Rain = 0
KCH1 171351Z 15005KT 11/03 A3008 RMK A01 T01050028  RH  059%=      5-min Rain = 0
KCH1 171352Z 16005KT 11/03 A3008 RMK A01 T01060030  RH  059%=      5-min Rain = 0
KCH1 171353Z 16003KT 11/03 A3008 RMK A01 T01070031  RH  059%=      5-min Rain = 0
KCH1 171354Z 16005KT 11/03 A3008 RMK A01 T01080034  RH  060%=      5-min Rain = 0
KCH1 171355Z 16007KT 11/04 A3008 RMK A01 T01100038  RH  061%=      5-min Rain = 0
KCH1 171356Z 16008KT 11/04 A3008 RMK A01 T01110042  RH  062%=      5-min Rain = 0
KCH1 171357Z 16006KT 11/05 A3008 RMK A01 T01130045  RH  063%=      5-min Rain = 0
KCH1 171358Z 16004KT 12/05 A3008 RMK A01 T01150046  RH  063%=      5-min Rain = 0
KCH1 171359Z 17004KT 12/05 A3008 RMK A01 T01170046  RH  062%=      5-min Rain = 0
KCH1 171400Z 17005KT 12/05 A3008 RMK A01 T01170045  RH  061%=      5-min Rain = 0
KCH1 171401Z 17006KT 12/05 A3008 RMK A01 T01170048  RH  062%=      5-min Rain = 0
KCH1 171402Z 18010KT 12/05 A3008 RMK A01 T01170051  RH  064%=      5-min Rain = 0
KCH1 171403Z 18008KT 12/06 A3008 RMK A01 T01190060  RH  067%=      5-min Rain = 0
KCH1 171404Z 18007KT 12/06 A3008 RMK A01 T01200058  RH  066%=      5-min Rain = 0
KCH1 171405Z 18010G15KT 12/06 A3008 RMK A01 T01220063  RH  067%=      5-min Rain = 0
KCH1 171406Z 17007KT 12/07 A3008 RMK A01 T01240066  RH  068%=      5-min Rain = 0
KCH1 171407Z 18011KT 13/07 A3008 RMK A01 T01260068  RH  068%=      5-min Rain = 0
KCH1 171408Z 17008KT 13/07 A3008 RMK A01 T01270070  RH  068%=      5-min Rain = 0
KCH1 171409Z 19009KT 13/07 A3008 RMK A01 T01280071  RH  068%=      5-min Rain = 0
KCH1 171410Z 19013KT 13/07 A3008 RMK A01 T01290073  RH  069%=      5-min Rain = 0
KCH1 171411Z 18010KT 13/08 A3008 RMK A01 T01300075  RH  069%=      5-min Rain = 0
KCH1 171412Z 18010KT 13/08 A3008 RMK A01 T01300075  RH  069%=      5-min Rain = 0
KCH1 171413Z 18008KT 13/08 A3008 RMK A01 T01310075  RH  069%=      5-min Rain = 0
KCH1 171414Z 19009KT 13/08 A3008 RMK A01 T01320075  RH  069%=      5-min Rain = 0
KCH1 171415Z 18008KT 13/08 A3008 RMK A01 T01320075  RH  068%=      5-min Rain = 0
KCH1 171416Z 18007KT 13/08 A3008 RMK A01 T01320075  RH  068%=      5-min Rain = 0
KCH1 171417Z 17008G13KT 13/08 A3008 RMK A01 T01340076  RH  068%=      5-min Rain = 0
KCH1 171418Z 18012KT 13/08 A3008 RMK A01 T01340075  RH  068%=      5-min Rain = 0
KCH1 171419Z 18011G16KT 13/08 A3008 RMK A01 T01340076  RH  068%=      5-min Rain = 0
KCH1 171420Z 18014KT 13/08 A3008 RMK A01 T01330076  RH  068%=      5-min Rain = 0
KCH1 171421Z 18015KT 13/08 A3008 RMK A01 T01320076  RH  069%=      5-min Rain = 0
KCH1 171422Z 19013KT 13/08 A3008 RMK A01 T01310076  RH  069%=      5-min Rain = 0
KCH1 171423Z 19011G16KT 13/08 A3008 RMK A01 T01310076  RH  070%=      5-min Rain = 0
KCH1 171424Z 19007KT 13/08 A3009 RMK A01 T01310077  RH  070%=      5-min Rain = 0
KCH1 171425Z 20010KT 13/08 A3009 RMK A01 T01320077  RH  069%=      5-min Rain = 0
KCH1 171426Z 17012KT 13/08 A3009 RMK A01 T01330078  RH  069%=      5-min Rain = 0
KCH1 171427Z 19009KT 13/08 A3009 RMK A01 T01340078  RH  069%=      5-min Rain = 0
KCH1 171428Z 18009G16KT 13/08 A3009 RMK A01 T01340079  RH  069%=      5-min Rain = 0
KCH1 171429Z 19012KT 14/08 A3009 RMK A01 T01360080  RH  069%=      5-min Rain = 0
KCH1 171430Z 19011KT 14/08 A3009 RMK A01 T01360079  RH  069%=      5-min Rain = 0
KCH1 171431Z 18011KT 14/08 A3009 RMK A01 T01350079  RH  069%=      5-min Rain = 0
KCH1 171432Z 17011G16KT 14/08 A3009 RMK A01 T01350080  RH  069%=      5-min Rain = 0
KCH1 171433Z 18009KT 14/08 A3009 RMK A01 T01350080  RH  069%=      5-min Rain = 0
KCH1 171434Z 19009KT 14/08 A3009 RMK A01 T01360081  RH  069%=      5-min Rain = 0
KCH1 171435Z 18011KT 14/08 A3009 RMK A01 T01370081  RH  069%=      5-min Rain = 0
KCH1 171436Z 18009G15KT 14/08 A3009 RMK A01 T01370081  RH  069%=      5-min Rain = 0
KCH1 171437Z 18009KT 14/08 A3009 RMK A01 T01370082  RH  069%=      5-min Rain = 0
KCH1 171438Z 18010KT 14/08 A3009 RMK A01 T01380082  RH  069%=      5-min Rain = 0
KCH1 171439Z 17010KT 14/08 A3009 RMK A01 T01380082  RH  069%=      5-min Rain = 0
KCH1 171440Z 19012KT 14/08 A3009 RMK A01 T01380082  RH  069%=      5-min Rain = 0
KCH1 171441Z 18011G16KT 14/08 A3009 RMK A01 T01380083  RH  069%=      5-min Rain = 0
KCH1 171442Z 19008G15KT 14/08 A3009 RMK A01 T01380083  RH  069%=      5-min Rain = 0
KCH1 171443Z 18011KT 14/08 A3009 RMK A01 T01390084  RH  069%=      5-min Rain = 0
KCH1 171444Z 18010G15KT 14/08 A3009 RMK A01 T01390084  RH  069%=      5-min Rain = 0
KCH1 171445Z 19011KT 14/09 A3009 RMK A01 T01400085  RH  070%=      5-min Rain = 0
KCH1 171446Z 18010KT 14/09 A3009 RMK A01 T01400087  RH  070%=      5-min Rain = 0
KCH1 171447Z 19009G14KT 14/09 A3009 RMK A01 T01410089  RH  071%=      5-min Rain = 0
KCH1 171448Z 19011G17KT 14/09 A3009 RMK A01 T01420092  RH  072%=      5-min Rain = 0
KCH1 171449Z 18011KT 14/09 A3009 RMK A01 T01420093  RH  072%=      5-min Rain = 0
KCH1 171450Z 18011KT 14/10 A3009 RMK A01 T01430095  RH  073%=      5-min Rain = 0
KCH1 171451Z 18012KT 14/10 A3009 RMK A01 T01440095  RH  073%=      5-min Rain = 0
KCH1 171452Z 19011KT 14/10 A3009 RMK A01 T01440095  RH  073%=      5-min Rain = 0
KCH1 171453Z 18011KT 14/10 A3009 RMK A01 T01440096  RH  073%=      5-min Rain = 0
KCH1 171454Z 19011KT 15/10 A3009 RMK A01 T01450097  RH  072%=      5-min Rain = 0
KCH1 171455Z 19011KT 15/10 A3009 RMK A01 T01450096  RH  072%=      5-min Rain = 0
KCH1 171456Z 18013KT 15/10 A3008 RMK A01 T01450096  RH  073%=      5-min Rain = 0
KCH1 171457Z 18013KT 15/10 A3008 RMK A01 T01450097  RH  073%=      5-min Rain = 0
KCH1 171458Z 18012KT 15/10 A3008 RMK A01 T01450097  RH  073%=      5-min Rain = 0
KCH1 171459Z 19009KT 15/10 A3008 RMK A01 T01460098  RH  073%=      5-min Rain = 0
KCH1 171500Z 19009G14KT 15/10 A3008 RMK A01 T01480099  RH  073%=      5-min Rain = 0
KCH1 171501Z 20011KT 15/10 A3008 RMK A01 T01480098  RH  072%=      5-min Rain = 0
KCH1 171502Z 19006KT 15/10 A3008 RMK A01 T01480099  RH  072%=      5-min Rain = 0
KCH1 171503Z 20010KT 15/10 A3008 RMK A01 T01490099  RH  072%=      5-min Rain = 0
KCH1 171504Z 19010KT 15/10 A3008 RMK A01 T01500099  RH  072%=      5-min Rain = 0
KCH1 171505Z 20008KT 15/10 A3008 RMK A01 T01500101  RH  072%=      5-min Rain = 0
KCH1 171506Z 19009KT 15/10 A3008 RMK A01 T01510100  RH  071%=      5-min Rain = 0
KCH1 171507Z 18010KT 15/10 A3008 RMK A01 T01520100  RH  071%=      5-min Rain = 0
KCH1 171508Z 20007G12KT 15/10 A3008 RMK A01 T01520101  RH  071%=      5-min Rain = 0
KCH1 171509Z 21008KT 15/10 A3008 RMK A01 T01540102  RH  071%=      5-min Rain = 0
KCH1 171510Z 20007KT 16/10 A3008 RMK A01 T01550102  RH  071%=      5-min Rain = 0
KCH1 171511Z 20007KT 15/10 A3008 RMK A01 T01540102  RH  071%=      5-min Rain = 0
KCH1 171512Z 19008KT 16/10 A3008 RMK A01 T01550103  RH  071%=      5-min Rain = 0
KCH1 171513Z 20008KT 16/10 A3008 RMK A01 T01570103  RH  070%=      5-min Rain = 0
KCH1 171514Z 19008KT 16/10 A3008 RMK A01 T01570103  RH  070%=      5-min Rain = 0
KCH1 171515Z 19010KT 16/10 A3008 RMK A01 T01570103  RH  070%=      5-min Rain = 0
KCH1 171516Z 19010KT 16/10 A3008 RMK A01 T01560102  RH  070%=      5-min Rain = 0
KCH1 171517Z 19010KT 16/10 A3008 RMK A01 T01560103  RH  071%=      5-min Rain = 0
KCH1 171518Z 19010KT 16/10 A3008 RMK A01 T01560103  RH  071%=      5-min Rain = 0
KCH1 171519Z 19011KT 16/10 A3008 RMK A01 T01570103  RH  070%=      5-min Rain = 0
KCH1 171520Z 19010KT 16/10 A3008 RMK A01 T01570104  RH  071%=      5-min Rain = 0
KCH1 171521Z 19011KT 16/10 A3008 RMK A01 T01570104  RH  071%=      5-min Rain = 0
KCH1 171522Z 20011KT 16/10 A3008 RMK A01 T01560104  RH  071%=      5-min Rain = 0
KCH1 171523Z 20010G15KT 16/10 A3008 RMK A01 T01560103  RH  071%=      5-min Rain = 0
KCH1 171524Z 18009G14KT 16/10 A3008 RMK A01 T01570104  RH  071%=      5-min Rain = 0
KCH1 171525Z 18008KT 16/10 A3008 RMK A01 T01580104  RH  070%=      5-min Rain = 0
KCH1 171526Z 19008KT 16/11 A3008 RMK A01 T01600105  RH  070%=      5-min Rain = 0
KCH1 171527Z 19012KT 16/10 A3008 RMK A01 T01600104  RH  069%=      5-min Rain = 0
KCH1 171528Z 19009G14KT 16/10 A3008 RMK A01 T01600104  RH  070%=      5-min Rain = 0
KCH1 171529Z 18011KT 16/11 A3008 RMK A01 T01600105  RH  070%=      5-min Rain = 0
KCH1 171530Z 21010KT 16/11 A3008 RMK A01 T01620106  RH  069%=      5-min Rain = 0
KCH1 171531Z 22009KT 16/11 A3008 RMK A01 T01630105  RH  069%=      5-min Rain = 0
KCH1 171532Z 19007G12KT 16/11 A3008 RMK A01 T01620106  RH  069%=      5-min Rain = 0
KCH1 171533Z 20011KT 16/11 A3008 RMK A01 T01630106  RH  069%=      5-min Rain = 0
KCH1 171534Z 21010KT 16/11 A3008 RMK A01 T01630105  RH  069%=      5-min Rain = 0
KCH1 171535Z 20011KT 16/11 A3008 RMK A01 T01630106  RH  069%=      5-min Rain = 0
KCH1 171536Z 19012KT 16/11 A3008 RMK A01 T01640106  RH  069%=      5-min Rain = 0
KCH1 171537Z 20009KT 16/11 A3008 RMK A01 T01640106  RH  068%=      5-min Rain = 0
KCH1 171538Z 19011KT 17/11 A3008 RMK A01 T01650106  RH  068%=      5-min Rain = 0
KCH1 171539Z 18011KT 17/11 A3008 RMK A01 T01660107  RH  068%=      5-min Rain = 0
KCH1 171540Z 18011KT 17/11 A3008 RMK A01 T01660106  RH  068%=      5-min Rain = 0
KCH1 171541Z 19011KT 17/11 A3008 RMK A01 T01660107  RH  068%=      5-min Rain = 0
KCH1 171542Z 19010KT 17/11 A3008 RMK A01 T01670107  RH  068%=      5-min Rain = 0
KCH1 171543Z 19010KT 17/11 A3008 RMK A01 T01680108  RH  068%=      5-min Rain = 0
KCH1 171544Z 19009KT 17/11 A3008 RMK A01 T01700108  RH  067%=      5-min Rain = 0
KCH1 171545Z 20008KT 17/11 A3008 RMK A01 T01710109  RH  067%=      5-min Rain = 0
KCH1 171546Z 19011KT 17/11 A3008 RMK A01 T01720108  RH  066%=      5-min Rain = 0
KCH1 171547Z 19009KT 17/11 A3008 RMK A01 T01710108  RH  066%=      5-min Rain = 0
KCH1 171548Z 20010KT 17/11 A3008 RMK A01 T01720108  RH  066%=      5-min Rain = 0
KCH1 171549Z 20012KT 17/11 A3008 RMK A01 T01720108  RH  066%=      5-min Rain = 0
KCH1 171550Z 22011KT 17/11 A3008 RMK A01 T01730108  RH  066%=      5-min Rain = 0
KCH1 171551Z 22012KT 17/11 A3008 RMK A01 T01730108  RH  066%=      5-min Rain = 0
KCH1 171552Z 19011G16KT 17/11 A3008 RMK A01 T01730109  RH  066%=      5-min Rain = 0
KCH1 171553Z 20010G15KT 17/11 A3008 RMK A01 T01730109  RH  066%=      5-min Rain = 0
KCH1 171554Z 20008KT 18/11 A3008 RMK A01 T01750110  RH  066%=      5-min Rain = 0
KCH1 171555Z 19009KT 18/11 A3008 RMK A01 T01770110  RH  065%=      5-min Rain = 0
KCH1 171556Z 19008KT 18/11 A3008 RMK A01 T01770110  RH  065%=      5-min Rain = 0
KCH1 171557Z 19010KT 18/11 A3008 RMK A01 T01780110  RH  064%=      5-min Rain = 0
KCH1 171558Z 18011KT 18/11 A3008 RMK A01 T01780109  RH  064%=      5-min Rain = 0
KCH1 171559Z 20008KT 18/11 A3008 RMK A01 T01780110  RH  064%=      5-min Rain = 0
KCH1 171600Z 20010KT 18/11 A3008 RMK A01 T01780110  RH  064%=      5-min Rain = 0
KCH1 171601Z 20009KT 18/11 A3008 RMK A01 T01790109  RH  064%=      5-min Rain = 0
KCH1 171602Z 20010KT 18/11 A3008 RMK A01 T01780109  RH  064%=      5-min Rain = 0
KCH1 171603Z 19009KT 18/11 A3008 RMK A01 T01790109  RH  064%=      5-min Rain = 0
KCH1 171604Z 20009KT 18/11 A3008 RMK A01 T01780109  RH  064%=      5-min Rain = 0
KCH1 171605Z 20007G12KT 18/11 A3008 RMK A01 T01780110  RH  064%=      5-min Rain = 0
KCH1 171606Z 19011KT 18/11 A3008 RMK A01 T01790109  RH  064%=      5-min Rain = 0
KCH1 171607Z 18008KT 18/11 A3008 RMK A01 T01800110  RH  063%=      5-min Rain = 0
KCH1 171608Z 20009G14KT 18/11 A3008 RMK A01 T01810111  RH  063%=      5-min Rain = 0
KCH1 171609Z 20009KT 18/11 A3008 RMK A01 T01820110  RH  063%=      5-min Rain = 0
KCH1 171610Z 19011KT 18/11 A3008 RMK A01 T01820110  RH  063%=      5-min Rain = 0
KCH1 171611Z 18008KT 18/11 A3008 RMK A01 T01810111  RH  063%=      5-min Rain = 0
KCH1 171612Z 19011KT 18/11 A3008 RMK A01 T01840114  RH  063%=      5-min Rain = 0
KCH1 171613Z 19011KT 19/11 A3008 RMK A01 T01860111  RH  061%=      5-min Rain = 0
KCH1 171614Z 18011KT 19/11 A3008 RMK A01 T01850111  RH  062%=      5-min Rain = 0
KCH1 171615Z 19011KT 18/11 A3007 RMK A01 T01840111  RH  062%=      5-min Rain = 0
KCH1 171616Z 19012KT 18/11 A3007 RMK A01 T01830110  RH  063%=      5-min Rain = 0
KCH1 171617Z 18011KT 18/11 A3007 RMK A01 T01830111  RH  063%=      5-min Rain = 0
KCH1 171618Z 19010KT 18/11 A3007 RMK A01 T01840111  RH  062%=      5-min Rain = 0
KCH1 171619Z 20009KT 19/11 A3007 RMK A01 T01850111  RH  062%=      5-min Rain = 0
KCH1 171620Z 21008KT 19/11 A3007 RMK A01 T01860112  RH  062%=      5-min Rain = 0
KCH1 171621Z 19009KT 19/11 A3007 RMK A01 T01870113  RH  062%=      5-min Rain = 0
KCH1 171622Z 19009KT 19/11 A3007 RMK A01 T01890112  RH  061%=      5-min Rain = 0
KCH1 171623Z 19007KT 19/11 A3007 RMK A01 T01890113  RH  061%=      5-min Rain = 0
KCH1 171624Z 19010KT 19/11 A3007 RMK A01 T01900113  RH  061%=      5-min Rain = 0
KCH1 171625Z 20010KT 19/11 A3007 RMK A01 T01910112  RH  060%=      5-min Rain = 0
KCH1 171626Z 20011KT 19/11 A3007 RMK A01 T01910112  RH  060%=      5-min Rain = 0
KCH1 171627Z 21011KT 19/11 A3007 RMK A01 T01910112  RH  060%=      5-min Rain = 0
KCH1 171628Z 21007KT 19/11 A3007 RMK A01 T01910112  RH  060%=      5-min Rain = 0
KCH1 171629Z 20008KT 19/11 A3007 RMK A01 T01930113  RH  060%=      5-min Rain = 0
KCH1 171630Z 18011KT 20/11 A3007 RMK A01 T01960114  RH  059%=      5-min Rain = 0
KCH1 171631Z 19010KT 20/11 A3007 RMK A01 T01970114  RH  059%=      5-min Rain = 0
KCH1 171632Z 20007KT 20/12 A3007 RMK A01 T01970115  RH  059%=      5-min Rain = 0
KCH1 171633Z 20009G14KT 20/12 A3007 RMK A01 T01990116  RH  059%=      5-min Rain = 0
KCH1 171634Z 22011KT 20/11 A3007 RMK A01 T02010114  RH  058%=      5-min Rain = 0
KCH1 171635Z 22010G15KT 20/11 A3007 RMK A01 T02000114  RH  057%=      5-min Rain = 0
KCH1 171636Z 19009KT 20/12 A3007 RMK A01 T02000115  RH  058%=      5-min Rain = 0
KCH1 171637Z 19013G18KT 20/12 A3007 RMK A01 T02010115  RH  058%=      5-min Rain = 0
KCH1 171638Z 20009KT 20/11 A3007 RMK A01 T02010114  RH  057%=      5-min Rain = 0
KCH1 171639Z 20008KT 20/12 A3006 RMK A01 T02020115  RH  057%=      5-min Rain = 0
KCH1 171640Z 19009G14KT 20/11 A3006 RMK A01 T02030114  RH  057%=      5-min Rain = 0
KCH1 171641Z 18013G19KT 20/12 A3006 RMK A01 T02040115  RH  057%=      5-min Rain = 0
KCH1 171642Z 20010KT 21/12 A3006 RMK A01 T02050115  RH  056%=      5-min Rain = 0
KCH1 171643Z 20006KT 21/12 A3006 RMK A01 T02060116  RH  056%=      5-min Rain = 0
KCH1 171644Z 20011G17KT 21/12 A3006 RMK A01 T02070117  RH  056%=      5-min Rain = 0
KCH1 171645Z 22009KT 21/12 A3006 RMK A01 T02090115  RH  055%=      5-min Rain = 0
KCH1 171646Z 21012KT 21/11 A3006 RMK A01 T02090114  RH  054%=      5-min Rain = 0
KCH1 171647Z 19011KT 21/12 A3006 RMK A01 T02090115  RH  055%=      5-min Rain = 0
KCH1 171648Z 18014G19KT 21/12 A3006 RMK A01 T02080115  RH  055%=      5-min Rain = 0
KCH1 171649Z 20012KT 21/11 A3006 RMK A01 T02080114  RH  055%=      5-min Rain = 0
KCH1 171650Z 20012KT 21/11 A3006 RMK A01 T02070114  RH  055%=      5-min Rain = 0
KCH1 171651Z 21010G15KT 21/11 A3006 RMK A01 T02070113  RH  055%=      5-min Rain = 0
KCH1 171652Z 20006KT 21/12 A3006 RMK A01 T02070115  RH  055%=      5-min Rain = 0
KCH1 171653Z 20006KT 21/12 A3006 RMK A01 T02100117  RH  055%=      5-min Rain = 0
KCH1 171654Z 20008KT 21/12 A3006 RMK A01 T02130117  RH  054%=      5-min Rain = 0
KCH1 171655Z 19012KT 22/12 A3006 RMK A01 T02150116  RH  053%=      5-min Rain = 0
KCH1 171656Z 19014KT 21/11 A3006 RMK A01 T02140114  RH  053%=      5-min Rain = 0
KCH1 171657Z 20010G15KT 21/11 A3006 RMK A01 T02100114  RH  054%=      5-min Rain = 0
KCH1 171658Z 21010KT 21/12 A3006 RMK A01 T02100115  RH  055%=      5-min Rain = 0
KCH1 171659Z 19014KT 21/12 A3006 RMK A01 T02110115  RH  054%=      5-min Rain = 0
KCH1 171700Z 20013KT 21/12 A3006 RMK A01 T02110115  RH  054%=      5-min Rain = 0
KCH1 171701Z 20012KT 21/12 A3006 RMK A01 T02110115  RH  054%=      5-min Rain = 0
KCH1 171702Z 20007KT 21/12 A3006 RMK A01 T02120115  RH  054%=      5-min Rain = 0
KCH1 171703Z 21008KT 21/12 A3006 RMK A01 T02120116  RH  054%=      5-min Rain = 0
KCH1 171704Z 19009KT 21/12 A3006 RMK A01 T02140117  RH  054%=      5-min Rain = 0
KCH1 171705Z 20008G13KT 22/12 A3006 RMK A01 T02160117  RH  053%=      5-min Rain = 0
KCH1 171706Z 20010G15KT 22/12 A3006 RMK A01 T02170116  RH  053%=      5-min Rain = 0
KCH1 171707Z 21011KT 22/12 A3006 RMK A01 T02180116  RH  052%=      5-min Rain = 0
KCH1 171708Z 19009KT 22/12 A3006 RMK A01 T02200117  RH  052%=      5-min Rain = 0
KCH1 171709Z 19012G19KT 22/12 A3005 RMK A01 T02220118  RH  052%=      5-min Rain = 0
KCH1 171710Z 18014KT 22/12 A3005 RMK A01 T02210116  RH  051%=      5-min Rain = 0
KCH1 171711Z 18012G17KT 22/12 A3005 RMK A01 T02200116  RH  052%=      5-min Rain = 0
KCH1 171712Z 20011G16KT 22/12 A3005 RMK A01 T02190115  RH  052%=      5-min Rain = 0
KCH1 171713Z 21010KT 22/12 A3005 RMK A01 T02180116  RH  052%=      5-min Rain = 0
KCH1 171714Z 19008G13KT 22/12 A3005 RMK A01 T02180116  RH  052%=      5-min Rain = 0
KCH1 171715Z 19009KT 22/12 A3005 RMK A01 T02200118  RH  052%=      5-min Rain = 0
KCH1 171716Z 21009G14KT 22/12 A3005 RMK A01 T02240119  RH  051%=      5-min Rain = 0
KCH1 171717Z 18011KT 23/12 A3005 RMK A01 T02250118  RH  051%=      5-min Rain = 0
KCH1 171718Z 18010G16KT 23/12 A3005 RMK A01 T02260119  RH  051%=      5-min Rain = 0
KCH1 171719Z 19012KT 23/12 A3005 RMK A01 T02260117  RH  050%=      5-min Rain = 0
KCH1 171720Z 18009KT 23/12 A3005 RMK A01 T02260117  RH  050%=      5-min Rain = 0
KCH1 171721Z 18011KT 23/12 A3005 RMK A01 T02260118  RH  051%=      5-min Rain = 0
KCH1 171722Z 19009G14KT 23/12 A3005 RMK A01 T02270118  RH  050%=      5-min Rain = 0
KCH1 171723Z 20010KT 23/12 A3005 RMK A01 T02280117  RH  050%=      5-min Rain = 0
KCH1 171724Z 20009G14KT 23/12 A3005 RMK A01 T02290118  RH  050%=      5-min Rain = 0
KCH1 171725Z 20010KT 23/12 A3005 RMK A01 T02290117  RH  049%=      5-min Rain = 0
KCH1 171726Z 22009KT 23/12 A3005 RMK A01 T02280117  RH  049%=      5-min Rain = 0
KCH1 171727Z 20008KT 23/12 A3005 RMK A01 T02270118  RH  050%=      5-min Rain = 0
KCH1 171728Z 20011KT 23/12 A3005 RMK A01 T02280118  RH  050%=      5-min Rain = 0
KCH1 171729Z 20012KT 23/12 A3005 RMK A01 T02290116  RH  049%=      5-min Rain = 0
KCH1 171730Z 19009G14KT 23/12 A3005 RMK A01 T02290117  RH  049%=      5-min Rain = 0
KCH1 171731Z 20007KT 23/12 A3005 RMK A01 T02300119  RH  050%=      5-min Rain = 0
KCH1 171732Z 18009KT 23/12 A3005 RMK A01 T02320120  RH  049%=      5-min Rain = 0
KCH1 171733Z 18009KT 23/12 A3005 RMK A01 T02340120  RH  049%=      5-min Rain = 0
KCH1 171734Z 19010KT 24/12 A3005 RMK A01 T02350119  RH  048%=      5-min Rain = 0
KCH1 171735Z 19012KT 24/12 A3004 RMK A01 T02350119  RH  048%=      5-min Rain = 0
KCH1 171736Z 19012KT 24/12 A3004 RMK A01 T02360119  RH  048%=      5-min Rain = 0
KCH1 171737Z 19013KT 24/12 A3004 RMK A01 T02350116  RH  047%=      5-min Rain = 0
KCH1 171738Z 19013KT 23/12 A3004 RMK A01 T02340116  RH  047%=      5-min Rain = 0
KCH1 171739Z 22012G18KT 23/12 A3004 RMK A01 T02330115  RH  047%=      5-min Rain = 0
KCH1 171740Z 22010G15KT 23/12 A3004 RMK A01 T02330115  RH  047%=      5-min Rain = 0
KCH1 171741Z 22012KT 24/12 A3004 RMK A01 T02350116  RH  047%=      5-min Rain = 0
KCH1 171742Z 21010G15KT 24/12 A3004 RMK A01 T02350116  RH  047%=      5-min Rain = 0
KCH1 171743Z 21012G17KT 24/12 A3004 RMK A01 T02360115  RH  046%=      5-min Rain = 0
KCH1 171744Z 21014KT 24/11 A3004 RMK A01 T02360114  RH  046%=      5-min Rain = 0
KCH1 171745Z 21010KT 24/12 A3004 RMK A01 T02350115  RH  047%=      5-min Rain = 0
KCH1 171746Z 22011G21KT 24/12 A3004 RMK A01 T02360116  RH  047%=      5-min Rain = 0
KCH1 171747Z 22012G18KT 24/11 A3004 RMK A01 T02380114  RH  046%=      5-min Rain = 0
KCH1 171748Z 21013G18KT 24/12 A3004 RMK A01 T02370115  RH  046%=      5-min Rain = 0
KCH1 171749Z 21014G19KT 24/12 A3004 RMK A01 T02370115  RH  046%=      5-min Rain = 0
KCH1 171750Z 21010G16KT 24/12 A3003 RMK A01 T02380115  RH  046%=      5-min Rain = 0
KCH1 171751Z 23009G14KT 24/12 A3003 RMK A01 T02390117  RH  046%=      5-min Rain = 0
KCH1 171752Z 20008KT 24/12 A3003 RMK A01 T02410118  RH  046%=      5-min Rain = 0
KCH1 171753Z 19011KT 24/12 A3003 RMK A01 T02430117  RH  045%=      5-min Rain = 0
KCH1 171754Z 19015KT 24/12 A3003 RMK A01 T02430117  RH  045%=      5-min Rain = 0
KCH1 171755Z 20013KT 24/12 A3003 RMK A01 T02410115  RH  045%=      5-min Rain = 0
KCH1 171756Z 20011G16KT 24/12 A3003 RMK A01 T02400116  RH  046%=      5-min Rain = 0
KCH1 171757Z 21012G17KT 24/12 A3003 RMK A01 T02400116  RH  046%=      5-min Rain = 0
KCH1 171758Z 20014KT 24/12 A3003 RMK A01 T02410117  RH  046%=      5-min Rain = 0
KCH1 171759Z 19015KT 24/12 A3003 RMK A01 T02420116  RH  045%=      5-min Rain = 0
KCH1 171800Z 20012G17KT 24/12 A3002 RMK A01 T02410116  RH  045%=      5-min Rain = 0
KCH1 171801Z 21011G16KT 24/12 A3002 RMK A01 T02420117  RH  046%=      5-min Rain = 0
KCH1 171802Z 21013KT 24/12 A3002 RMK A01 T02430117  RH  045%=      5-min Rain = 0
KCH1 171803Z 22010G15KT 24/12 A3002 RMK A01 T02440117  RH  045%=      5-min Rain = 0
KCH1 171804Z 21015KT 24/12 A3002 RMK A01 T02440116  RH  045%=      5-min Rain = 0
KCH1 171805Z 21010KT 25/12 A3002 RMK A01 T02450117  RH  045%=      5-min Rain = 0
KCH1 171806Z 19013G18KT 25/12 A3002 RMK A01 T02460117  RH  044%=      5-min Rain = 0
KCH1 171807Z 22012KT 25/12 A3002 RMK A01 T02470119  RH  045%=      5-min Rain = 0
KCH1 171808Z 21012KT 25/12 A3002 RMK A01 T02480118  RH  044%=      5-min Rain = 0
KCH1 171809Z 22010G15KT 25/12 A3002 RMK A01 T02480118  RH  044%=      5-min Rain = 0
KCH1 171810Z 22011G17KT 25/12 A3002 RMK A01 T02490117  RH  044%=      5-min Rain = 0
KCH1 171811Z 22012G17KT 25/12 A3002 RMK A01 T02490117  RH  044%=      5-min Rain = 0
KCH1 171812Z 22014G22KT 25/12 A3002 RMK A01 T02490116  RH  043%=      5-min Rain = 0
KCH1 171813Z 22016G21KT 25/12 A3002 RMK A01 T02480116  RH  044%=      5-min Rain = 0
KCH1 171814Z 22014KT 25/12 A3002 RMK A01 T02460115  RH  044%=      5-min Rain = 0
KCH1 171815Z 22010G16KT 25/12 A3002 RMK A01 T02460117  RH  045%=      5-min Rain = 0
KCH1 171816Z 21014G20KT 25/12 A3001 RMK A01 T02470116  RH  044%=      5-min Rain = 0
KCH1 171817Z 21015G20KT 25/12 A3001 RMK A01 T02470117  RH  044%=      5-min Rain = 0
KCH1 171818Z 21014G20KT 25/12 A3001 RMK A01 T02480117  RH  044%=      5-min Rain = 0
KCH1 171819Z 21012G17KT 25/12 A3001 RMK A01 T02490117  RH  044%=      5-min Rain = 0
KCH1 171820Z 21011G17KT 25/12 A3001 RMK A01 T02490118  RH  044%=      5-min Rain = 0
KCH1 171821Z 22012KT 25/12 A3001 RMK A01 T02500118  RH  044%=      5-min Rain = 0
KCH1 171822Z 22014G19KT 25/12 A3001 RMK A01 T02500118  RH  044%=      5-min Rain = 0
KCH1 171823Z 22015G21KT 25/12 A3001 RMK A01 T02500118  RH  044%=      5-min Rain = 0
KCH1 171824Z 22011KT 25/12 A3001 RMK A01 T02490118  RH  044%=      5-min Rain = 0
KCH1 171825Z 22011KT 25/12 A3001 RMK A01 T02500119  RH  044%=      5-min Rain = 0
KCH1 171826Z 21012G19KT 25/12 A30 RMK A01 T02520120  RH  044%=      5-min Rain = 0
KCH1 171827Z 21012G17KT 25/12 A3001 RMK A01 T02540120  RH  043%=      5-min Rain = 0
KCH1 171828Z 20011G17KT 26/12 A30 RMK A01 T02550119  RH  043%=      5-min Rain = 0
KCH1 171829Z 21015G20KT 26/12 A30 RMK A01 T02550120  RH  043%=      5-min Rain = 0
KCH1 171830Z 22014G19KT 25/12 A30 RMK A01 T02540118  RH  043%=      5-min Rain = 0
KCH1 171831Z 20013G19KT 25/12 A30 RMK A01 T02520118  RH  043%=      5-min Rain = 0
KCH1 171832Z 20013G18KT 25/12 A30 RMK A01 T02520118  RH  043%=      5-min Rain = 0
KCH1 171833Z 21013G18KT 25/12 A30 RMK A01 T02520119  RH  043%=      5-min Rain = 0
KCH1 171834Z 20015G23KT 25/12 A30 RMK A01 T02540119  RH  043%=      5-min Rain = 0
KCH1 171835Z 20017G22KT 26/12 A2999 RMK A01 T02550118  RH  042%=      5-min Rain = 0
KCH1 171836Z 22016G22KT 25/12 A30 RMK A01 T02540118  RH  043%=      5-min Rain = 0
KCH1 171837Z 22014G19KT 25/12 A30 RMK A01 T02540117  RH  042%=      5-min Rain = 0
KCH1 171838Z 23016G21KT 25/12 A2999 RMK A01 T02530118  RH  043%=      5-min Rain = 0
KCH1 171839Z 23016G21KT 25/12 A2999 RMK A01 T02530117  RH  043%=      5-min Rain = 0
KCH1 171840Z 23010G17KT 25/12 A2999 RMK A01 T02530118  RH  043%=      5-min Rain = 0
KCH1 171841Z 21012G19KT 25/12 A2999 RMK A01 T02540120  RH  043%=      5-min Rain = 0
KCH1 171842Z 21010KT 26/12 A2999 RMK A01 T02560120  RH  043%=      5-min Rain = 0
KCH1 171843Z 19009G14KT 26/12 A2999 RMK A01 T02580123  RH  043%=      5-min Rain = 0
KCH1 171844Z 19013KT 26/12 A2999 RMK A01 T02610122  RH  042%=      5-min Rain = 0
KCH1 171845Z 22012G19KT 26/12 A2999 RMK A01 T02620123  RH  042%=      5-min Rain = 0
KCH1 171846Z 22014G20KT 26/12 A2999 RMK A01 T02620121  RH  042%=      5-min Rain = 0
KCH1 171847Z 21013KT 26/12 A2998 RMK A01 T02600118  RH  041%=      5-min Rain = 0
KCH1 171848Z 19011KT 26/12 A2998 RMK A01 T02580120  RH  042%=      5-min Rain = 0
KCH1 171849Z 19010KT 26/12 A2998 RMK A01 T02590121  RH  042%=      5-min Rain = 0
KCH1 171850Z 20013KT 26/12 A2998 RMK A01 T02610121  RH  042%=      5-min Rain = 0
KCH1 171851Z 21015G20KT 26/12 A2998 RMK A01 T02600118  RH  041%=      5-min Rain = 0
KCH1 171852Z 20013G18KT 26/12 A2998 RMK A01 T02580119  RH  042%=      5-min Rain = 0
KCH1 171853Z 21011G17KT 26/12 A2998 RMK A01 T02590119  RH  042%=      5-min Rain = 0
KCH1 171854Z 21011G16KT 26/12 A2998 RMK A01 T02600121  RH  042%=      5-min Rain = 0
KCH1 171855Z 22013KT 26/12 A2998 RMK A01 T02620121  RH  041%=      5-min Rain = 0
KCH1 171856Z 21010KT 26/12 A2998 RMK A01 T02630122  RH  042%=      5-min Rain = 0
KCH1 171857Z 21010G17KT 26/12 A2998 RMK A01 T02640123  RH  042%=      5-min Rain = 0
KCH1 171858Z 21014G20KT 27/12 A2998 RMK A01 T02650120  RH  040%=      5-min Rain = 0
KCH1 171859Z 21009KT 26/12 A2998 RMK A01 T02630121  RH  041%=      5-min Rain = 0
KCH1 171900Z 23010KT 27/12 A2998 RMK A01 T02650122  RH  041%=      5-min Rain = 0
KCH1 171901Z 20009KT 27/12 A2998 RMK A01 T02660122  RH  041%=      5-min Rain = 0
KCH1 171902Z 22013G19KT 27/12 A2998 RMK A01 T02660121  RH  041%=      5-min Rain = 0
KCH1 171903Z 23016G21KT 27/12 A2998 RMK A01 T02660119  RH  040%=      5-min Rain = 0
KCH1 171904Z 23011KT 26/12 A2998 RMK A01 T02640119  RH  041%=      5-min Rain = 0
KCH1 171905Z 22011KT 26/12 A2998 RMK A01 T02630120  RH  041%=      5-min Rain = 0
KCH1 171906Z 22010KT 26/12 A2998 RMK A01 T02640121  RH  041%=      5-min Rain = 0
KCH1 171907Z 19012G20KT 27/12 A2998 RMK A01 T02650124  RH  041%=      5-min Rain = 0
KCH1 171908Z 19016G22KT 27/12 A2997 RMK A01 T02670120  RH  040%=      5-min Rain = 0
KCH1 171909Z 20010KT 27/12 A2997 RMK A01 T02660121  RH  040%=      5-min Rain = 0
KCH1 171910Z 21009G14KT 27/12 A2997 RMK A01 T02660120  RH  040%=      5-min Rain = 0
KCH1 171911Z 22010KT 27/12 A2997 RMK A01 T02670122  RH  040%=      5-min Rain = 0
KCH1 171912Z 20014KT 27/12 A2997 RMK A01 T02680120  RH  040%=      5-min Rain = 0
KCH1 171913Z 20012G18KT 27/12 A2997 RMK A01 T02680121  RH  040%=      5-min Rain = 0
KCH1 171914Z 20016KT 27/12 A2997 RMK A01 T02680120  RH  040%=      5-min Rain = 0
KCH1 171915Z 20015KT 27/12 A2997 RMK A01 T02670119  RH  040%=      5-min Rain = 0
KCH1 171916Z 20011KT 27/12 A2997 RMK A01 T02650119  RH  040%=      5-min Rain = 0
KCH1 171917Z 19012KT 27/12 A2997 RMK A01 T02650121  RH  041%=      5-min Rain = 0
KCH1 171918Z 20009G16KT 27/12 A2996 RMK A01 T02660120  RH  040%=      5-min Rain = 0
KCH1 171919Z 22011G17KT 27/12 A2996 RMK A01 T02670122  RH  040%=      5-min Rain = 0
KCH1 171920Z 21014KT 27/12 A2996 RMK A01 T02690119  RH  039%=      5-min Rain = 0
KCH1 171921Z 21012KT 27/12 A2996 RMK A01 T02690118  RH  039%=      5-min Rain = 0
KCH1 171922Z 21008KT 27/12 A2996 RMK A01 T02690120  RH  040%=      5-min Rain = 0
KCH1 171923Z 21011KT 27/12 A2996 RMK A01 T02710121  RH  039%=      5-min Rain = 0
KCH1 171924Z 21012G17KT 27/12 A2996 RMK A01 T02720122  RH  039%=      5-min Rain = 0
KCH1 171925Z 22014KT 27/12 A2996 RMK A01 T02720120  RH  039%=      5-min Rain = 0
KCH1 171926Z 22010G16KT 27/12 A2996 RMK A01 T02700119  RH  039%=      5-min Rain = 0
KCH1 171927Z 22013KT 27/12 A2996 RMK A01 T02700120  RH  039%=      5-min Rain = 0
KCH1 171928Z 22010G17KT 27/12 A2996 RMK A01 T02700119  RH  039%=      5-min Rain = 0
KCH1 171929Z 22011G19KT 27/12 A2996 RMK A01 T02700121  RH  039%=      5-min Rain = 0
KCH1 171930Z 22015KT 27/12 A2996 RMK A01 T02710119  RH  039%=      5-min Rain = 0
KCH1 171931Z 22011G16KT 27/12 A2995 RMK A01 T02700120  RH  039%=      5-min Rain = 0
KCH1 171932Z 23013KT 27/12 A2995 RMK A01 T02700120  RH  039%=      5-min Rain = 0
KCH1 171933Z 23013KT 27/12 A2995 RMK A01 T02700121  RH  040%=      5-min Rain = 0
KCH1 171934Z 23013G21KT 27/12 A2995 RMK A01 T02690120  RH  040%=      5-min Rain = 0
KCH1 171935Z 22011G16KT 27/12 A2995 RMK A01 T02680121  RH  040%=      5-min Rain = 0
KCH1 171936Z 24010KT 27/12 A2995 RMK A01 T02690120  RH  040%=      5-min Rain = 0
KCH1 171937Z 22010G15KT 27/12 A2995 RMK A01 T02700122  RH  040%=      5-min Rain = 0
KCH1 171938Z 21012G17KT 27/12 A2995 RMK A01 T02730123  RH  040%=      5-min Rain = 0
KCH1 171939Z 20008KT 27/12 A2995 RMK A01 T02740123  RH  039%=      5-min Rain = 0
KCH1 171940Z 20010G15KT 27/12 A2995 RMK A01 T02740123  RH  039%=      5-min Rain = 0
KCH1 171941Z 20010G15KT 28/12 A2995 RMK A01 T02760123  RH  039%=      5-min Rain = 0
KCH1 171942Z 22013G18KT 28/12 A2995 RMK A01 T02760122  RH  038%=      5-min Rain = 0
KCH1 171943Z 22010KT 28/12 A2995 RMK A01 T02750121  RH  038%=      5-min Rain = 0
KCH1 171944Z 22010KT 28/12 A2994 RMK A01 T02750121  RH  038%=      5-min Rain = 0
KCH1 171945Z 23008KT 28/12 A2994 RMK A01 T02750122  RH  039%=      5-min Rain = 0
KCH1 171946Z 21007KT 28/12 A2994 RMK A01 T02770122  RH  038%=      5-min Rain = 0
KCH1 171947Z 21007KT 28/12 A2994 RMK A01 T02780123  RH  038%=      5-min Rain = 0
KCH1 171948Z 19010KT 28/13 A2994 RMK A01 T02790125  RH  038%=      5-min Rain = 0
KCH1 171949Z 19013KT 28/12 A2994 RMK A01 T02800124  RH  038%=      5-min Rain = 0
KCH1 171950Z 22010G16KT 28/13 A2994 RMK A01 T02800125  RH  038%=      5-min Rain = 0
KCH1 171951Z 20012KT 28/12 A2994 RMK A01 T02790124  RH  038%=      5-min Rain = 0
KCH1 171952Z 21015G21KT 28/12 A2994 RMK A01 T02770121  RH  038%=      5-min Rain = 0
KCH1 171953Z 21014KT 28/12 A2994 RMK A01 T02750121  RH  038%=      5-min Rain = 0
KCH1 171954Z 21013KT 27/12 A2994 RMK A01 T02740121  RH  039%=      5-min Rain = 0
KCH1 171955Z 21010KT 27/12 A2994 RMK A01 T02740122  RH  039%=      5-min Rain = 0
KCH1 171956Z 21007G13KT 28/13 A2994 RMK A01 T02750125  RH  039%=      5-min Rain = 0
KCH1 171957Z 20013KT 28/12 A2994 RMK A01 T02770124  RH  039%=      5-min Rain = 0
KCH1 171958Z 20011KT 28/12 A2994 RMK A01 T02770123  RH  038%=      5-min Rain = 0
KCH1 171959Z 20011KT 28/12 A2994 RMK A01 T02750123  RH  039%=      5-min Rain = 0
KCH1 172000Z 20010G16KT 28/12 A2994 RMK A01 T02750124  RH  039%=      5-min Rain = 0
KCH1 172001Z 20010KT 28/12 A2994 RMK A01 T02750123  RH  039%=      5-min Rain = 0
KCH1 172002Z 19010KT 28/12 A2994 RMK A01 T02770124  RH  039%=      5-min Rain = 0
KCH1 172003Z 20011KT 28/12 A2994 RMK A01 T02790124  RH  038%=      5-min Rain = 0
KCH1 172004Z 21011G16KT 28/12 A2994 RMK A01 T02800123  RH  038%=      5-min Rain = 0
KCH1 172005Z 21011G16KT 28/12 A2994 RMK A01 T02790122  RH  038%=      5-min Rain = 0
KCH1 172006Z 21011G20KT 28/12 A2993 RMK A01 T02780122  RH  038%=      5-min Rain = 0
KCH1 172007Z 22014G22KT 28/12 A2993 RMK A01 T02770121  RH  038%=      5-min Rain = 0
KCH1 172008Z 20011KT 28/12 A2993 RMK A01 T02770121  RH  038%=      5-min Rain = 0
KCH1 172009Z 20012G18KT 28/12 A2993 RMK A01 T02760121  RH  038%=      5-min Rain = 0
KCH1 172010Z 20013KT 28/12 A2993 RMK A01 T02770120  RH  038%=      5-min Rain = 0
KCH1 172011Z 21007KT 28/12 A2993 RMK A01 T02770122  RH  038%=      5-min Rain = 0
KCH1 172012Z 21012G17KT 28/12 A2993 RMK A01 T02790122  RH  038%=      5-min Rain = 0
KCH1 172013Z 21015G21KT 28/12 A2993 RMK A01 T02810121  RH  037%=      5-min Rain = 0
KCH1 172014Z 22014KT 28/12 A2993 RMK A01 T02800119  RH  037%=      5-min Rain = 0
KCH1 172015Z 22011KT 28/12 A2993 RMK A01 T02790119  RH  037%=      5-min Rain = 0
KCH1 172016Z 23013G18KT 28/12 A2993 RMK A01 T02790120  RH  037%=      5-min Rain = 0
KCH1 172017Z 21010KT 28/12 A2993 RMK A01 T02790121  RH  037%=      5-min Rain = 0
KCH1 172018Z 19011KT 28/12 A2993 RMK A01 T02810122  RH  037%=      5-min Rain = 0
KCH1 172019Z 22010KT 28/12 A2993 RMK A01 T02820124  RH  038%=      5-min Rain = 0
KCH1 172020Z 21009G14KT 28/12 A2993 RMK A01 T02820122  RH  037%=      5-min Rain = 0
KCH1 172021Z 20010G17KT 28/12 A2993 RMK A01 T02830122  RH  037%=      5-min Rain = 0
KCH1 172022Z 21013KT 28/12 A2993 RMK A01 T02830121  RH  037%=      5-min Rain = 0
KCH1 172023Z 22007G14KT 28/12 A2993 RMK A01 T02820122  RH  037%=      5-min Rain = 0
KCH1 172024Z 22008KT 28/12 A2993 RMK A01 T02830124  RH  037%=      5-min Rain = 0
KCH1 172025Z 22011KT 29/12 A2993 RMK A01 T02850123  RH  037%=      5-min Rain = 0
KCH1 172026Z 22012G18KT 28/12 A2993 RMK A01 T02840121  RH  037%=      5-min Rain = 0
KCH1 172027Z 22007KT 28/12 A2993 RMK A01 T02820122  RH  037%=      5-min Rain = 0
KCH1 172028Z 19006G13KT 28/12 A2993 RMK A01 T02820124  RH  037%=      5-min Rain = 0
KCH1 172029Z 21011G16KT 28/12 A2993 RMK A01 T02840121  RH  036%=      5-min Rain = 0
KCH1 172030Z 21010KT 28/12 A2993 RMK A01 T02840120  RH  036%=      5-min Rain = 0
KCH1 172031Z 20012KT 28/12 A2993 RMK A01 T02840122  RH  037%=      5-min Rain = 0
KCH1 172032Z 20012KT 28/12 A2993 RMK A01 T02830120  RH  036%=      5-min Rain = 0
KCH1 172033Z 19013KT 28/12 A2992 RMK A01 T02820120  RH  037%=      5-min Rain = 0
KCH1 172034Z 19012KT 28/12 A2992 RMK A01 T02810120  RH  037%=      5-min Rain = 0
KCH1 172035Z 20010KT 28/12 A2992 RMK A01 T02810119  RH  037%=      5-min Rain = 0
KCH1 172036Z 21009KT 28/12 A2992 RMK A01 T02800121  RH  037%=      5-min Rain = 0
KCH1 172037Z 21011KT 28/12 A2992 RMK A01 T02810122  RH  037%=      5-min Rain = 0
KCH1 172038Z 20012KT 28/12 A2992 RMK A01 T02830120  RH  037%=      5-min Rain = 0
KCH1 172039Z 20009KT 28/12 A2992 RMK A01 T02830121  RH  037%=      5-min Rain = 0
KCH1 172040Z 20012G17KT 28/12 A2992 RMK A01 T02830120  RH  036%=      5-min Rain = 0
KCH1 172041Z 20011KT 28/12 A2992 RMK A01 T02830119  RH  036%=      5-min Rain = 0
KCH1 172042Z 21010KT 28/12 A2992 RMK A01 T02830120  RH  036%=      5-min Rain = 0
KCH1 172043Z 23014KT 28/12 A2992 RMK A01 T02840121  RH  036%=      5-min Rain = 0
KCH1 172044Z 22012KT 28/12 A2992 RMK A01 T02840120  RH  036%=      5-min Rain = 0
KCH1 172045Z 20010KT 28/12 A2992 RMK A01 T02840122  RH  037%=      5-min Rain = 0
KCH1 172046Z 21012KT 29/12 A2992 RMK A01 T02850122  RH  037%=      5-min Rain = 0
KCH1 172047Z 21011KT 29/12 A2992 RMK A01 T02850121  RH  036%=      5-min Rain = 0
KCH1 172048Z 21011KT 29/12 A2991 RMK A01 T02850122  RH  036%=      5-min Rain = 0
KCH1 172049Z 22014KT 29/12 A2991 RMK A01 T02850122  RH  037%=      5-min Rain = 0
KCH1 172050Z 22013KT 29/12 A2991 RMK A01 T02850120  RH  036%=      5-min Rain = 0
KCH1 172051Z 21010KT 28/12 A2991 RMK A01 T02820120  RH  036%=      5-min Rain = 0
KCH1 172052Z 21013KT 28/12 A2991 RMK A01 T02820121  RH  037%=      5-min Rain = 0
KCH1 172053Z 21010KT 28/12 A2991 RMK A01 T02830122  RH  037%=      5-min Rain = 0
KCH1 172054Z 19011G18KT 29/12 A2991 RMK A01 T02850123  RH  037%=      5-min Rain = 0
KCH1 172055Z 20013KT 29/12 A2991 RMK A01 T02860122  RH  036%=      5-min Rain = 0
KCH1 172056Z 20008G14KT 29/12 A2991 RMK A01 T02860121  RH  036%=      5-min Rain = 0
KCH1 172057Z 18012G21KT 29/12 A2991 RMK A01 T02860123  RH  036%=      5-min Rain = 0
KCH1 172058Z 20015KT 29/12 A2991 RMK A01 T02870120  RH  036%=      5-min Rain = 0
KCH1 172059Z 19009KT 29/12 A2991 RMK A01 T02860121  RH  036%=      5-min Rain = 0
KCH1 172100Z 20007KT 29/12 A2991 RMK A01 T02860123  RH  037%=      5-min Rain = 0
KCH1 172101Z 22010KT 29/12 A2991 RMK A01 T02870124  RH  036%=      5-min Rain = 0
KCH1 172102Z 22014KT 29/12 A2991 RMK A01 T02880123  RH  036%=      5-min Rain = 0
KCH1 172103Z 21012G17KT 29/12 A2991 RMK A01 T02880122  RH  036%=      5-min Rain = 0
KCH1 172104Z 20013KT 29/12 A2991 RMK A01 T02860121  RH  036%=      5-min Rain = 0
KCH1 172105Z 20010KT 29/12 A299 RMK A01 T02850121  RH  036%=      5-min Rain = 0
KCH1 172106Z 19012G17KT 29/12 A299 RMK A01 T02850123  RH  037%=      5-min Rain = 0
KCH1 172107Z 22014G19KT 29/12 A299 RMK A01 T02850122  RH  036%=      5-min Rain = 0
KCH1 172108Z 21013KT 29/12 A299 RMK A01 T02850121  RH  036%=      5-min Rain = 0
KCH1 172109Z 20010G19KT 29/12 A299 RMK A01 T02850120  RH  036%=      5-min Rain = 0
KCH1 172110Z 20014G20KT 29/12 A299 RMK A01 T02860121  RH  036%=      5-min Rain = 0
KCH1 172111Z 20014KT 29/12 A299 RMK A01 T02860120  RH  036%=      5-min Rain = 0
KCH1 172112Z 21014KT 29/12 A299 RMK A01 T02860122  RH  036%=      5-min Rain = 0
KCH1 172113Z 21012G17KT 29/12 A299 RMK A01 T02860122  RH  036%=      5-min Rain = 0
KCH1 172114Z 21010KT 29/12 A299 RMK A01 T02860123  RH  036%=      5-min Rain = 0
KCH1 172115Z 20011KT 29/12 A299 RMK A01 T02880123  RH  036%=      5-min Rain = 0
KCH1 172116Z 19012G18KT 29/12 A2989 RMK A01 T02880122  RH  036%=      5-min Rain = 0
KCH1 172117Z 20014KT 29/12 A2989 RMK A01 T02880122  RH  036%=      5-min Rain = 0
KCH1 172118Z 21014KT 29/12 A2989 RMK A01 T02880122  RH  036%=      5-min Rain = 0
KCH1 172119Z 22015KT 29/12 A2989 RMK A01 T02870122  RH  036%=      5-min Rain = 0
KCH1 172120Z 21012KT 29/12 A2989 RMK A01 T02850121  RH  036%=      5-min Rain = 0
KCH1 172121Z 20010G15KT 29/12 A2989 RMK A01 T02860123  RH  037%=      5-min Rain = 0
KCH1 172122Z 20010G15KT 29/12 A2989 RMK A01 T02870122  RH  036%=      5-min Rain = 0
KCH1 172123Z 20010G16KT 29/12 A2989 RMK A01 T02880123  RH  036%=      5-min Rain = 0
KCH1 172124Z 19010KT 29/12 A2989 RMK A01 T02890122  RH  036%=      5-min Rain = 0
KCH1 172125Z 21013G18KT 29/12 A2989 RMK A01 T02890122  RH  036%=      5-min Rain = 0
KCH1 172126Z 20010G15KT 29/12 A2989 RMK A01 T02890121  RH  035%=      5-min Rain = 0
KCH1 172127Z 20012G18KT 29/12 A2989 RMK A01 T02880122  RH  036%=      5-min Rain = 0
KCH1 172128Z 20011G16KT 29/12 A299 RMK A01 T02880120  RH  035%=      5-min Rain = 0
KCH1 172129Z 21009KT 29/12 A299 RMK A01 T02880120  RH  035%=      5-min Rain = 0
KCH1 172130Z 21009KT 29/12 A299 RMK A01 T02880121  RH  036%=      5-min Rain = 0
KCH1 172131Z 20011KT 29/12 A299 RMK A01 T02880122  RH  036%=      5-min Rain = 0
KCH1 172132Z 20010G15KT 29/12 A299 RMK A01 T02880122  RH  036%=      5-min Rain = 0
KCH1 172133Z 19014KT 29/12 A299 RMK A01 T02880121  RH  036%=      5-min Rain = 0
KCH1 172134Z 21012KT 29/12 A2989 RMK A01 T02880120  RH  035%=      5-min Rain = 0
KCH1 172135Z 20011G18KT 29/12 A299 RMK A01 T02870120  RH  035%=      5-min Rain = 0
KCH1 172136Z 22012G17KT 29/12 A299 RMK A01 T02870122  RH  036%=      5-min Rain = 0
KCH1 172137Z 21012KT 29/12 A299 RMK A01 T02880121  RH  036%=      5-min Rain = 0
KCH1 172138Z 20010KT 29/12 A299 RMK A01 T02880122  RH  036%=      5-min Rain = 0
KCH1 172139Z 20010G16KT 29/12 A299 RMK A01 T02880122  RH  036%=      5-min Rain = 0
KCH1 172140Z 21012G18KT 29/12 A299 RMK A01 T02890122  RH  036%=      5-min Rain = 0
KCH1 172141Z 22011KT 29/12 A299 RMK A01 T02890122  RH  036%=      5-min Rain = 0
KCH1 172142Z 20008KT 29/12 A299 RMK A01 T02890122  RH  036%=      5-min Rain = 0
KCH1 172143Z 22011KT 29/12 A2989 RMK A01 T02900124  RH  036%=      5-min Rain = 0
KCH1 172144Z 21010KT 29/12 A2989 RMK A01 T02910122  RH  035%=      5-min Rain = 0
KCH1 172145Z 22009KT 29/12 A2989 RMK A01 T02910124  RH  036%=      5-min Rain = 0
KCH1 172146Z 22013G19KT 29/12 A2989 RMK A01 T02920123  RH  035%=      5-min Rain = 0
KCH1 172147Z 21011KT 29/12 A2989 RMK A01 T02900121  RH  035%=      5-min Rain = 0
KCH1 172148Z 20010KT 29/12 A2989 RMK A01 T02890121  RH  036%=      5-min Rain = 0
KCH1 172149Z 19011KT 29/12 A2989 RMK A01 T02890122  RH  036%=      5-min Rain = 0
KCH1 172150Z 20009KT 29/12 A2989 RMK A01 T02880122  RH  036%=      5-min Rain = 0
KCH1 172151Z 22008G15KT 29/12 A2989 RMK A01 T02880123  RH  036%=      5-min Rain = 0
KCH1 172152Z 20012G17KT 29/12 A2989 RMK A01 T02890123  RH  036%=      5-min Rain = 0
KCH1 172153Z 20012KT 29/12 A2989 RMK A01 T02900122  RH  036%=      5-min Rain = 0
KCH1 172154Z 19012KT 29/12 A2989 RMK A01 T02880121  RH  036%=      5-min Rain = 0
KCH1 172155Z 20011G18KT 29/12 A2989 RMK A01 T02880122  RH  036%=      5-min Rain = 0
KCH1 172156Z 20014KT 29/12 A2989 RMK A01 T02880121  RH  036%=      5-min Rain = 0
KCH1 172157Z 19010KT 29/12 A2989 RMK A01 T02870121  RH  036%=      5-min Rain = 0
KCH1 172158Z 20010KT 29/12 A2989 RMK A01 T02870121  RH  036%=      5-min Rain = 0
KCH1 172159Z 22012KT 29/12 A2989 RMK A01 T02870121  RH  036%=      5-min Rain = 0
KCH1 172200Z 21013KT 29/12 A2989 RMK A01 T02870120  RH  036%=      5-min Rain = 0
KCH1 172201Z 21014KT 29/12 A2989 RMK A01 T02870120  RH  036%=      5-min Rain = 0
KCH1 172202Z 20013G18KT 29/12 A2989 RMK A01 T02870119  RH  035%=      5-min Rain = 0
KCH1 172203Z 20010KT 29/12 A2989 RMK A01 T02870120  RH  036%=      5-min Rain = 0
KCH1 172204Z 20011KT 29/12 A2989 RMK A01 T02870120  RH  036%=      5-min Rain = 0
KCH1 172205Z 20011KT 29/12 A2989 RMK A01 T02860119  RH  036%=      5-min Rain = 0
KCH1 172206Z 21008KT 29/12 A2989 RMK A01 T02860120  RH  036%=      5-min Rain = 0
KCH1 172207Z 20009KT 29/12 A2989 RMK A01 T02860120  RH  036%=      5-min Rain = 0
KCH1 172208Z 19014KT 29/12 A2989 RMK A01 T02870120  RH  036%=      5-min Rain = 0
KCH1 172209Z 21011G16KT 29/12 A2989 RMK A01 T02870121  RH  036%=      5-min Rain = 0
KCH1 172210Z 21009KT 29/12 A2989 RMK A01 T02870120  RH  036%=      5-min Rain = 0
KCH1 172211Z 22012G17KT 29/12 A2989 RMK A01 T02870120  RH  036%=      5-min Rain = 0
KCH1 172212Z 22011G16KT 29/12 A2989 RMK A01 T02860118  RH  035%=      5-min Rain = 0
KCH1 172213Z 21012G17KT 29/12 A2989 RMK A01 T02860118  RH  035%=      5-min Rain = 0
KCH1 172214Z 19012KT 29/12 A2989 RMK A01 T02860118  RH  035%=      5-min Rain = 0
KCH1 172215Z 20013KT 29/12 A2989 RMK A01 T02850119  RH  036%=      5-min Rain = 0
KCH1 172216Z 21009KT 29/12 A2989 RMK A01 T02860120  RH  036%=      5-min Rain = 0
KCH1 172217Z 20008KT 29/12 A2989 RMK A01 T02850120  RH  036%=      5-min Rain = 0
KCH1 172218Z 21013KT 29/12 A2989 RMK A01 T02860120  RH  036%=      5-min Rain = 0
KCH1 172219Z 21011KT 29/12 A2989 RMK A01 T02860119  RH  036%=      5-min Rain = 0
KCH1 172220Z 21009KT 29/12 A2989 RMK A01 T02850120  RH  036%=      5-min Rain = 0
KCH1 172221Z 20008KT 29/12 A2989 RMK A01 T02850121  RH  036%=      5-min Rain = 0
KCH1 172222Z 21007KT 29/12 A2989 RMK A01 T02850122  RH  036%=      5-min Rain = 0
KCH1 172223Z 21007KT 29/12 A2989 RMK A01 T02870123  RH  036%=      5-min Rain = 0
KCH1 172224Z 21014KT 29/12 A2989 RMK A01 T02880122  RH  036%=      5-min Rain = 0
KCH1 172225Z 21015KT 29/12 A2989 RMK A01 T02870120  RH  036%=      5-min Rain = 0
KCH1 172226Z 20010KT 29/12 A2989 RMK A01 T02850120  RH  036%=      5-min Rain = 0
KCH1 172227Z 20013KT 29/12 A2988 RMK A01 T02850120  RH  036%=      5-min Rain = 0
KCH1 172228Z 20012G17KT 28/12 A2989 RMK A01 T02840120  RH  036%=      5-min Rain = 0
KCH1 172229Z 20012KT 29/12 A2988 RMK A01 T02850120  RH  036%=      5-min Rain = 0
KCH1 172230Z 20011KT 29/12 A2988 RMK A01 T02850120  RH  036%=      5-min Rain = 0
KCH1 172231Z 20014KT 29/12 A2988 RMK A01 T02850119  RH  036%=      5-min Rain = 0
KCH1 172232Z 19012KT 29/12 A2988 RMK A01 T02850119  RH  036%=      5-min Rain = 0
KCH1 172233Z 21009KT 28/12 A2988 RMK A01 T02840120  RH  036%=      5-min Rain = 0
KCH1 172234Z 20012KT 28/12 A2988 RMK A01 T02840119  RH  036%=      5-min Rain = 0
KCH1 172235Z 20013G20KT 28/12 A2988 RMK A01 T02840119  RH  036%=      5-min Rain = 0
KCH1 172236Z 20016G21KT 28/12 A2988 RMK A01 T02840118  RH  036%=      5-min Rain = 0
KCH1 172237Z 21013KT 28/12 A2989 RMK A01 T02830118  RH  036%=      5-min Rain = 0
KCH1 172238Z 20012KT 28/12 A2989 RMK A01 T02830118  RH  036%=      5-min Rain = 0
KCH1 172239Z 20010KT 28/12 A2989 RMK A01 T02830118  RH  036%=      5-min Rain = 0
KCH1 172240Z 21007G12KT 28/12 A2989 RMK A01 T02830120  RH  037%=      5-min Rain = 0
KCH1 172241Z 21007G13KT 28/12 A2989 RMK A01 T02840121  RH  037%=      5-min Rain = 0
KCH1 172242Z 21011G16KT 29/12 A2989 RMK A01 T02850121  RH  036%=      5-min Rain = 0
KCH1 172243Z 21012KT 28/12 A2989 RMK A01 T02840120  RH  036%=      5-min Rain = 0
KCH1 172244Z 22009KT 28/12 A2989 RMK A01 T02830119  RH  036%=      5-min Rain = 0
KCH1 172245Z 21010KT 28/12 A2989 RMK A01 T02830120  RH  036%=      5-min Rain = 0
KCH1 172246Z 22008KT 28/12 A2989 RMK A01 T02830119  RH  036%=      5-min Rain = 0
KCH1 172247Z 22008KT 28/12 A2989 RMK A01 T02830120  RH  037%=      5-min Rain = 0
KCH1 172248Z 22007KT 28/12 A2989 RMK A01 T02830121  RH  037%=      5-min Rain = 0
KCH1 172249Z 21007KT 28/12 A2989 RMK A01 T02830120  RH  037%=      5-min Rain = 0
KCH1 172250Z 20011KT 28/12 A2989 RMK A01 T02830120  RH  036%=      5-min Rain = 0
KCH1 172251Z 21010G15KT 28/12 A2989 RMK A01 T02830118  RH  036%=      5-min Rain = 0
KCH1 172252Z 21008KT 28/12 A2989 RMK A01 T02820119  RH  036%=      5-min Rain = 0
KCH1 172253Z 22007KT 28/12 A2989 RMK A01 T02820121  RH  037%=      5-min Rain = 0
KCH1 172254Z 21007G13KT 28/12 A2989 RMK A01 T02830122  RH  037%=      5-min Rain = 0
KCH1 172255Z 21008G13KT 28/12 A2989 RMK A01 T02830122  RH  037%=      5-min Rain = 0
KCH1 172256Z 22010KT 28/12 A2989 RMK A01 T02830121  RH  037%=      5-min Rain = 0
KCH1 172257Z 21008KT 28/12 A2989 RMK A01 T02820121  RH  037%=      5-min Rain = 0
KCH1 172258Z 21010KT 28/12 A2989 RMK A01 T02810120  RH  037%=      5-min Rain = 0
KCH1 172259Z 21006KT 28/12 A2989 RMK A01 T02810121  RH  037%=      5-min Rain = 0
KCH1 172300Z 20009KT 28/12 A2989 RMK A01 T02810121  RH  037%=      5-min Rain = 0
KCH1 172301Z 20007KT 28/12 A2989 RMK A01 T02810120  RH  037%=      5-min Rain = 0
KCH1 172302Z 21009KT 28/12 A2989 RMK A01 T02810119  RH  037%=      5-min Rain = 0
KCH1 172303Z 21010KT 28/12 A2989 RMK A01 T02810119  RH  037%=      5-min Rain = 0
KCH1 172304Z 20007KT 28/12 A2989 RMK A01 T02800119  RH  037%=      5-min Rain = 0
KCH1 172305Z 20008KT 28/12 A2989 RMK A01 T02800120  RH  037%=      5-min Rain = 0
KCH1 172306Z 20007KT 28/12 A2989 RMK A01 T02800121  RH  037%=      5-min Rain = 0
KCH1 172307Z 19009G14KT 28/12 A2989 RMK A01 T02790120  RH  037%=      5-min Rain = 0
KCH1 172308Z 20007KT 28/12 A2989 RMK A01 T02800122  RH  038%=      5-min Rain = 0
KCH1 172309Z 20008KT 28/12 A2989 RMK A01 T02790121  RH  038%=      5-min Rain = 0
KCH1 172310Z 19007KT 28/12 A2989 RMK A01 T02790121  RH  038%=      5-min Rain = 0
KCH1 172311Z 19010KT 28/12 A2989 RMK A01 T02790121  RH  037%=      5-min Rain = 0
KCH1 172312Z 20010KT 28/12 A2989 RMK A01 T02780119  RH  037%=      5-min Rain = 0
KCH1 172313Z 20011KT 28/12 A2989 RMK A01 T02780119  RH  037%=      5-min Rain = 0
KCH1 172314Z 20011KT 28/12 A2989 RMK A01 T02780119  RH  037%=      5-min Rain = 0
KCH1 172315Z 20008KT 28/12 A2989 RMK A01 T02780120  RH  037%=      5-min Rain = 0
KCH1 172316Z 19007KT 28/12 A2989 RMK A01 T02780120  RH  038%=      5-min Rain = 0
KCH1 172317Z 20005KT 28/12 A2989 RMK A01 T02770121  RH  038%=      5-min Rain = 0
KCH1 172318Z 19007KT 28/12 A2989 RMK A01 T02770122  RH  038%=      5-min Rain = 0
KCH1 172319Z 20009KT 28/12 A2989 RMK A01 T02770121  RH  038%=      5-min Rain = 0
KCH1 172320Z 20007KT 28/12 A2989 RMK A01 T02760120  RH  038%=      5-min Rain = 0
KCH1 172321Z 20009KT 28/12 A2989 RMK A01 T02760121  RH  038%=      5-min Rain = 0
KCH1 172322Z 20008KT 28/12 A2989 RMK A01 T02760121  RH  038%=      5-min Rain = 0
KCH1 172323Z 20005KT 28/12 A2989 RMK A01 T02760122  RH  038%=      5-min Rain = 0
KCH1 172324Z 21007KT 28/12 A2989 RMK A01 T02750122  RH  039%=      5-min Rain = 0
KCH1 172325Z 20007G12KT 28/12 A2989 RMK A01 T02750122  RH  039%=      5-min Rain = 0
KCH1 172326Z 21008KT 28/12 A2989 RMK A01 T02750121  RH  038%=      5-min Rain = 0
KCH1 172327Z 21007KT 28/12 A2989 RMK A01 T02750121  RH  038%=      5-min Rain = 0
KCH1 172328Z 20008KT 27/12 A2989 RMK A01 T02740121  RH  038%=      5-min Rain = 0
KCH1 172329Z 21005KT 27/12 A2989 RMK A01 T02740121  RH  039%=      5-min Rain = 0
KCH1 172330Z 21007KT 27/12 A2989 RMK A01 T02740122  RH  039%=      5-min Rain = 0
KCH1 172331Z 20008KT 27/12 A2989 RMK A01 T02730121  RH  039%=      5-min Rain = 0
KCH1 172332Z 20009KT 27/12 A2989 RMK A01 T02730121  RH  039%=      5-min Rain = 0
KCH1 172333Z 19008KT 27/12 A2989 RMK A01 T02720121  RH  039%=      5-min Rain = 0
KCH1 172334Z 20008KT 27/12 A2988 RMK A01 T02710121  RH  039%=      5-min Rain = 0
KCH1 172335Z 21009KT 27/12 A2988 RMK A01 T02700120  RH  039%=      5-min Rain = 0
KCH1 172336Z 20009KT 27/12 A2988 RMK A01 T02700120  RH  039%=      5-min Rain = 0
KCH1 172337Z 20008KT 27/12 A2988 RMK A01 T02700120  RH  039%=      5-min Rain = 0
KCH1 172338Z 20007KT 27/12 A2989 RMK A01 T02690121  RH  040%=      5-min Rain = 0
KCH1 172339Z 20007KT 27/12 A2989 RMK A01 T02690121  RH  040%=      5-min Rain = 0
KCH1 172340Z 20010KT 27/12 A2989 RMK A01 T02680121  RH  040%=      5-min Rain = 0
KCH1 172341Z 20009G14KT 27/12 A2989 RMK A01 T02680120  RH  040%=      5-min Rain = 0
KCH1 172342Z 20008KT 27/12 A2989 RMK A01 T02680120  RH  040%=      5-min Rain = 0
KCH1 172343Z 20009KT 27/12 A2989 RMK A01 T02670120  RH  040%=      5-min Rain = 0
KCH1 172344Z 19009KT 27/12 A2989 RMK A01 T02670120  RH  040%=      5-min Rain = 0
KCH1 172345Z 19008KT 27/12 A2989 RMK A01 T02670119  RH  040%=      5-min Rain = 0
KCH1 172346Z 20009KT 27/12 A2989 RMK A01 T02660120  RH  040%=      5-min Rain = 0
KCH1 172347Z 20007KT 27/12 A2989 RMK A01 T02660120  RH  040%=      5-min Rain = 0
KCH1 172348Z 20006G12KT 27/12 A2989 RMK A01 T02650121  RH  041%=      5-min Rain = 0
KCH1 172349Z 20008KT 26/12 A2989 RMK A01 T02640120  RH  041%=      5-min Rain = 0
KCH1 172350Z 20008KT 26/12 A2989 RMK A01 T02630120  RH  041%=      5-min Rain = 0
KCH1 172351Z 20007KT 26/12 A2989 RMK A01 T02630120  RH  041%=      5-min Rain = 0
KCH1 172352Z 20006KT 26/12 A2989 RMK A01 T02620120  RH  041%=      5-min Rain = 0
KCH1 172353Z 20008KT 26/12 A2989 RMK A01 T02620120  RH  041%=      5-min Rain = 0
KCH1 172354Z 19008KT 26/12 A2989 RMK A01 T02620120  RH  041%=      5-min Rain = 0
KCH1 172355Z 20006KT 26/12 A2989 RMK A01 T02610120  RH  041%=      5-min Rain = 0
KCH1 172356Z 19006KT 26/12 A2989 RMK A01 T02610120  RH  042%=      5-min Rain = 0
KCH1 172357Z 19005KT 26/12 A2989 RMK A01 T02600120  RH  042%=      5-min Rain = 0
KCH1 172358Z 20006KT 26/12 A2989 RMK A01 T02590120  RH  042%=      5-min Rain = 0
KCH1 172359Z 19006KT 26/12 A2989 RMK A01 T02570120  RH  042%=      5-min Rain = 0
KCH1 180000Z 20005KT 26/12 A2989 RMK A01 T02560120  RH  043%=      5-min Rain = 0
KCH1 180001Z 20006KT 26/12 A2989 RMK A01 T02560120  RH  043%=      5-min Rain = 0
KCH1 180002Z 19007KT 26/12 A2989 RMK A01 T02550120  RH  043%=      5-min Rain = 0
KCH1 180003Z 19007KT 26/12 A2989 RMK A01 T02550120  RH  043%=      5-min Rain = 0
KCH1 180004Z 19007KT 26/12 A2989 RMK A01 T02550119  RH  043%=      5-min Rain = 0
KCH1 180005Z 20006KT 26/12 A2989 RMK A01 T02550119  RH  043%=      5-min Rain = 0
KCH1 180006Z 19007KT 25/12 A2989 RMK A01 T02540120  RH  043%=      5-min Rain = 0
KCH1 180007Z 19006KT 25/12 A2989 RMK A01 T02540120  RH  043%=      5-min Rain = 0
KCH1 180008Z 19006KT 25/12 A2989 RMK A01 T02530120  RH  043%=      5-min Rain = 0
KCH1 180009Z 19006KT 25/12 A2989 RMK A01 T02520120  RH  044%=      5-min Rain = 0
KCH1 180010Z 19006KT 25/12 A2989 RMK A01 T02510120  RH  044%=      5-min Rain = 0
KCH1 180011Z 19006KT 25/12 A2989 RMK A01 T02510120  RH  044%=      5-min Rain = 0
KCH1 180012Z 19005KT 25/12 A2989 RMK A01 T02490120  RH  044%=      5-min Rain = 0
KCH1 180013Z 19006KT 25/12 A2989 RMK A01 T02490120  RH  045%=      5-min Rain = 0
KCH1 180014Z 19006KT 25/12 A2988 RMK A01 T02470120  RH  045%=      5-min Rain = 0
KCH1 180015Z 19006KT 25/12 A2988 RMK A01 T02460120  RH  045%=      5-min Rain = 0
KCH1 180016Z 18006KT 25/12 A2988 RMK A01 T02460120  RH  046%=      5-min Rain = 0
KCH1 180017Z 18006KT 25/12 A2988 RMK A01 T02450121  RH  046%=      5-min Rain = 0
KCH1 180018Z 18006KT 24/12 A2988 RMK A01 T02440121  RH  046%=      5-min Rain = 0
KCH1 180019Z 18006KT 24/12 A2988 RMK A01 T02430121  RH  046%=      5-min Rain = 0
KCH1 180020Z 18006KT 24/12 A2988 RMK A01 T02420120  RH  047%=      5-min Rain = 0
KCH1 180021Z 18007KT 24/12 A2988 RMK A01 T02410121  RH  047%=      5-min Rain = 0
KCH1 180022Z 18006KT 24/12 A2988 RMK A01 T02410121  RH  047%=      5-min Rain = 0
KCH1 180023Z 18006KT 24/12 A2988 RMK A01 T02410121  RH  047%=      5-min Rain = 0
KCH1 180024Z 18007KT 24/12 A2989 RMK A01 T02400121  RH  047%=      5-min Rain = 0
KCH1 180025Z 18006KT 24/12 A2989 RMK A01 T02400121  RH  047%=      5-min Rain = 0
KCH1 180026Z 18006KT 24/12 A2989 RMK A01 T02410121  RH  047%=      5-min Rain = 0
KCH1 180027Z 18005KT 24/12 A2989 RMK A01 T02410121  RH  047%=      5-min Rain = 0
KCH1 180028Z 18006KT 24/12 A2989 RMK A01 T02400121  RH  047%=      5-min Rain = 0
KCH1 180029Z 18006KT 24/12 A2989 RMK A01 T02400121  RH  047%=      5-min Rain = 0
KCH1 180030Z 18005KT 24/12 A2989 RMK A01 T02400121  RH  047%=      5-min Rain = 0
KCH1 180031Z 18005KT 24/12 A2989 RMK A01 T02400121  RH  047%=      5-min Rain = 0
KCH1 180032Z 18006KT 24/12 A2989 RMK A01 T02390121  RH  047%=      5-min Rain = 0
KCH1 180033Z 18005KT 24/12 A2989 RMK A01 T02390121  RH  048%=      5-min Rain = 0
KCH1 180034Z 18006KT 24/12 A2989 RMK A01 T02380121  RH  048%=      5-min Rain = 0
KCH1 180035Z 18005KT 24/12 A2989 RMK A01 T02380121  RH  048%=      5-min Rain = 0
KCH1 180036Z 18006KT 24/12 A2989 RMK A01 T02370121  RH  048%=      5-min Rain = 0
KCH1 180037Z 18006KT 24/12 A2989 RMK A01 T02360121  RH  048%=      5-min Rain = 0
KCH1 180038Z 18006KT 24/12 A2989 RMK A01 T02360121  RH  048%=      5-min Rain = 0
KCH1 180039Z 18005KT 24/12 A2989 RMK A01 T02360120  RH  048%=      5-min Rain = 0
KCH1 180040Z 18005KT 24/12 A2989 RMK A01 T02360121  RH  048%=      5-min Rain = 0
KCH1 180041Z 17005KT 24/12 A2989 RMK A01 T02350120  RH  048%=      5-min Rain = 0
KCH1 180042Z 17005KT 24/12 A299 RMK A01 T02350121  RH  048%=      5-min Rain = 0
KCH1 180043Z 17005KT 24/12 A299 RMK A01 T02350120  RH  049%=      5-min Rain = 0
KCH1 180044Z 17005KT 23/12 A299 RMK A01 T02340120  RH  049%=      5-min Rain = 0
KCH1 180045Z 17005KT 23/12 A299 RMK A01 T02340120  RH  049%=      5-min Rain = 0
KCH1 180046Z 17005KT 23/12 A299 RMK A01 T02330120  RH  049%=      5-min Rain = 0
KCH1 180047Z 17006KT 23/12 A299 RMK A01 T02330120  RH  049%=      5-min Rain = 0
KCH1 180048Z 17006KT 23/12 A299 RMK A01 T02330120  RH  049%=      5-min Rain = 0
KCH1 180049Z 17006KT 23/12 A299 RMK A01 T02330120  RH  049%=      5-min Rain = 0
KCH1 180050Z 17006KT 23/12 A299 RMK A01 T02330120  RH  049%=      5-min Rain = 0
KCH1 180051Z 18006KT 23/12 A299 RMK A01 T02330120  RH  049%=      5-min Rain = 0
KCH1 180052Z 17006KT 23/12 A299 RMK A01 T02330120  RH  049%=      5-min Rain = 0
KCH1 180053Z 17006KT 23/12 A299 RMK A01 T02330120  RH  049%=      5-min Rain = 0
KCH1 180054Z 17007KT 23/12 A299 RMK A01 T02340120  RH  049%=      5-min Rain = 0
KCH1 180055Z 17007KT 23/12 A299 RMK A01 T02340120  RH  049%=      5-min Rain = 0
KCH1 180056Z 18007KT 24/12 A299 RMK A01 T02350120  RH  048%=      5-min Rain = 0
KCH1 180057Z 18007KT 24/12 A299 RMK A01 T02360120  RH  048%=      5-min Rain = 0
KCH1 180058Z 18007KT 24/12 A299 RMK A01 T02350120  RH  048%=      5-min Rain = 0
KCH1 180059Z 18008KT 24/12 A299 RMK A01 T02360120  RH  048%=      5-min Rain = 0
KCH1 180100Z 18007KT 24/12 A299 RMK A01 T02360121  RH  048%=      5-min Rain = 0
KCH1 180101Z 18007KT 24/12 A299 RMK A01 T02360120  RH  048%=      5-min Rain = 0
KCH1 180102Z 19009KT 24/12 A299 RMK A01 T02350120  RH  048%=      5-min Rain = 0
KCH1 180103Z 18007KT 24/12 A299 RMK A01 T02350120  RH  048%=      5-min Rain = 0
KCH1 180104Z 18008KT 24/12 A299 RMK A01 T02350120  RH  048%=      5-min Rain = 0
KCH1 180105Z 18006KT 24/12 A299 RMK A01 T02350120  RH  048%=      5-min Rain = 0
KCH1 180106Z 18007KT 24/12 A299 RMK A01 T02350121  RH  049%=      5-min Rain = 0
KCH1 180107Z 19006KT 23/12 A299 RMK A01 T02340120  RH  049%=      5-min Rain = 0
KCH1 180108Z 19007KT 23/12 A299 RMK A01 T02330120  RH  049%=      5-min Rain = 0
KCH1 180109Z 18006KT 23/12 A299 RMK A01 T02320120  RH  049%=      5-min Rain = 0
KCH1 180110Z 18006KT 23/12 A299 RMK A01 T02320120  RH  049%=      5-min Rain = 0
KCH1 180111Z 19006KT 23/12 A299 RMK A01 T02310120  RH  050%=      5-min Rain = 0
KCH1 180112Z 18007KT 23/12 A299 RMK A01 T02300120  RH  050%=      5-min Rain = 0
KCH1 180113Z 18006KT 23/12 A299 RMK A01 T02310120  RH  050%=      5-min Rain = 0
KCH1 180114Z 18006KT 23/12 A2991 RMK A01 T02300120  RH  050%=      5-min Rain = 0
KCH1 180115Z 18006KT 23/12 A2991 RMK A01 T02290120  RH  050%=      5-min Rain = 0
KCH1 180116Z 18005KT 23/12 A2991 RMK A01 T02280120  RH  050%=      5-min Rain = 0
KCH1 180117Z 17005KT 23/12 A2991 RMK A01 T02280120  RH  050%=      5-min Rain = 0
KCH1 180118Z 17005KT 23/12 A2991 RMK A01 T02270120  RH  051%=      5-min Rain = 0
KCH1 180119Z 17005KT 23/12 A2991 RMK A01 T02270120  RH  051%=      5-min Rain = 0
KCH1 180120Z 17005KT 23/12 A2991 RMK A01 T02260120  RH  051%=      5-min Rain = 0
KCH1 180121Z 16005KT 23/12 A2991 RMK A01 T02260120  RH  051%=      5-min Rain = 0
KCH1 180122Z 15005KT 23/12 A2991 RMK A01 T02250120  RH  051%=      5-min Rain = 0
KCH1 180123Z 16005KT 23/12 A2991 RMK A01 T02250120  RH  051%=      5-min Rain = 0
KCH1 180124Z 15006KT 23/12 A2991 RMK A01 T02250120  RH  051%=      5-min Rain = 0
KCH1 180125Z 15006KT 23/12 A2991 RMK A01 T02250120  RH  051%=      5-min Rain = 0
KCH1 180126Z 15005KT 23/12 A2991 RMK A01 T02250120  RH  051%=      5-min Rain = 0
KCH1 180127Z 15006KT 23/12 A2991 RMK A01 T02250121  RH  052%=      5-min Rain = 0
KCH1 180128Z 15006KT 23/12 A2991 RMK A01 T02250121  RH  052%=      5-min Rain = 0
KCH1 180129Z 15005KT 23/12 A2991 RMK A01 T02250121  RH  052%=      5-min Rain = 0
KCH1 180130Z 15005KT 23/12 A2991 RMK A01 T02250121  RH  052%=      5-min Rain = 0
KCH1 180131Z 15005KT 23/12 A2991 RMK A01 T02250121  RH  052%=      5-min Rain = 0
KCH1 180132Z 14005KT 22/12 A2991 RMK A01 T02240121  RH  052%=      5-min Rain = 0
KCH1 180133Z 14005KT 22/12 A2991 RMK A01 T02240121  RH  052%=      5-min Rain = 0
KCH1 180134Z 15004KT 22/12 A2991 RMK A01 T02240122  RH  052%=      5-min Rain = 0
KCH1 180135Z 14004KT 22/12 A2991 RMK A01 T02230121  RH  052%=      5-min Rain = 0
KCH1 180136Z 14005KT 22/12 A2991 RMK A01 T02230121  RH  053%=      5-min Rain = 0
KCH1 180137Z 14005KT 22/12 A2991 RMK A01 T02220121  RH  053%=      5-min Rain = 0
KCH1 180138Z 14005KT 22/12 A2991 RMK A01 T02210121  RH  053%=      5-min Rain = 0
KCH1 180139Z 15006KT 22/12 A2991 RMK A01 T02210121  RH  053%=      5-min Rain = 0
KCH1 180140Z 15005KT 22/12 A2991 RMK A01 T02210121  RH  053%=      5-min Rain = 0
KCH1 180141Z 15006KT 22/12 A2991 RMK A01 T02200121  RH  053%=      5-min Rain = 0
KCH1 180142Z 15006KT 22/12 A2991 RMK A01 T02190121  RH  054%=      5-min Rain = 0
KCH1 180143Z 15006KT 22/12 A2991 RMK A01 T02190121  RH  054%=      5-min Rain = 0
KCH1 180144Z 15006KT 22/12 A2991 RMK A01 T02180121  RH  054%=      5-min Rain = 0
KCH1 180145Z 16007KT 22/12 A2991 RMK A01 T02180121  RH  054%=      5-min Rain = 0
KCH1 180146Z 16006KT 22/12 A2991 RMK A01 T02190121  RH  054%=      5-min Rain = 0
KCH1 180147Z 16007KT 22/12 A2991 RMK A01 T02190121  RH  054%=      5-min Rain = 0
KCH1 180148Z 16007KT 22/12 A2991 RMK A01 T02200121  RH  054%=      5-min Rain = 0
KCH1 180149Z 16007KT 22/12 A2991 RMK A01 T02200122  RH  053%=      5-min Rain = 0
KCH1 180150Z 16007KT 22/12 A2991 RMK A01 T02210121  RH  053%=      5-min Rain = 0
KCH1 180151Z 17007KT 22/12 A2991 RMK A01 T02210121  RH  053%=      5-min Rain = 0
KCH1 180152Z 17006KT 22/12 A2991 RMK A01 T02220122  RH  053%=      5-min Rain = 0
KCH1 180153Z 17007KT 22/12 A2991 RMK A01 T02220122  RH  053%=      5-min Rain = 0
KCH1 180154Z 17006KT 22/12 A2991 RMK A01 T02220122  RH  053%=      5-min Rain = 0
KCH1 180155Z 17006KT 22/12 A2991 RMK A01 T02220122  RH  053%=      5-min Rain = 0
KCH1 180156Z 17006KT 22/12 A2991 RMK A01 T02210122  RH  053%=      5-min Rain = 0
KCH1 180157Z 18007KT 22/12 A2991 RMK A01 T02210122  RH  053%=      5-min Rain = 0
KCH1 180158Z 18006KT 22/12 A2991 RMK A01 T02200121  RH  053%=      5-min Rain = 0
KCH1 180159Z 17006KT 22/12 A2991 RMK A01 T02200121  RH  054%=      5-min Rain = 0
KCH1 180200Z 17006KT 22/12 A2991 RMK A01 T02200121  RH  054%=      5-min Rain = 0
KCH1 180201Z 17006KT 22/12 A2991 RMK A01 T02190121  RH  054%=      5-min Rain = 0
KCH1 180202Z 17006KT 22/12 A2991 RMK A01 T02180121  RH  054%=      5-min Rain = 0
KCH1 180203Z 17007KT 22/12 A2991 RMK A01 T02180121  RH  054%=      5-min Rain = 0
KCH1 180204Z 17007KT 22/12 A2991 RMK A01 T02180121  RH  054%=      5-min Rain = 0
KCH1 180205Z 17007KT 22/12 A2991 RMK A01 T02170121  RH  054%=      5-min Rain = 0
KCH1 180206Z 18006KT 22/12 A2991 RMK A01 T02170121  RH  054%=      5-min Rain = 0
KCH1 180207Z 18007KT 22/12 A2991 RMK A01 T02160121  RH  055%=      5-min Rain = 0
KCH1 180208Z 18007KT 22/12 A2991 RMK A01 T02160121  RH  055%=      5-min Rain = 0
KCH1 180209Z 18007KT 22/12 A2991 RMK A01 T02160121  RH  055%=      5-min Rain = 0
KCH1 180210Z 18006KT 22/12 A2991 RMK A01 T02150121  RH  055%=      5-min Rain = 0
KCH1 180211Z 18006KT 22/12 A2991 RMK A01 T02150121  RH  055%=      5-min Rain = 0
KCH1 180212Z 18007KT 22/12 A2991 RMK A01 T02150121  RH  055%=      5-min Rain = 0
KCH1 180213Z 19007KT 22/12 A2991 RMK A01 T02150121  RH  055%=      5-min Rain = 0
KCH1 180214Z 18007KT 22/12 A2991 RMK A01 T02150121  RH  055%=      5-min Rain = 0
KCH1 180215Z 19007KT 22/12 A2991 RMK A01 T02150121  RH  055%=      5-min Rain = 0
KCH1 180216Z 18008KT 22/12 A2991 RMK A01 T02150121  RH  055%=      5-min Rain = 0
KCH1 180217Z 19008KT 22/12 A2991 RMK A01 T02160121  RH  055%=      5-min Rain = 0
KCH1 180218Z 19007KT 22/12 A2991 RMK A01 T02160121  RH  055%=      5-min Rain = 0
KCH1 180219Z 19006KT 22/12 A2991 RMK A01 T02160121  RH  055%=      5-min Rain = 0
KCH1 180220Z 19008KT 22/12 A2991 RMK A01 T02170122  RH  055%=      5-min Rain = 0
KCH1 180221Z 19007KT 22/12 A2991 RMK A01 T02170122  RH  055%=      5-min Rain = 0
KCH1 180222Z 19007KT 22/12 A2991 RMK A01 T02180122  RH  054%=      5-min Rain = 0
KCH1 180223Z 19008KT 22/12 A2991 RMK A01 T02180122  RH  054%=      5-min Rain = 0
KCH1 180224Z 18007KT 22/12 A2991 RMK A01 T02200122  RH  054%=      5-min Rain = 0
KCH1 180225Z 19007KT 22/12 A2991 RMK A01 T02200123  RH  054%=      5-min Rain = 0
KCH1 180226Z 20007KT 22/12 A2991 RMK A01 T02210123  RH  054%=      5-min Rain = 0
KCH1 180227Z 20007KT 22/12 A2991 RMK A01 T02220123  RH  053%=      5-min Rain = 0
KCH1 180228Z 19007KT 22/12 A2991 RMK A01 T02220123  RH  053%=      5-min Rain = 0
KCH1 180229Z 20006KT 22/12 A2991 RMK A01 T02220123  RH  053%=      5-min Rain = 0
KCH1 180230Z 20006KT 22/12 A2991 RMK A01 T02220123  RH  053%=      5-min Rain = 0
KCH1 180231Z 19006KT 22/12 A2991 RMK A01 T02230124  RH  054%=      5-min Rain = 0
KCH1 180232Z 19006KT 22/12 A2991 RMK A01 T02220124  RH  054%=      5-min Rain = 0
KCH1 180233Z 19008KT 22/12 A2991 RMK A01 T02220124  RH  054%=      5-min Rain = 0
KCH1 180234Z 18007KT 22/12 A2991 RMK A01 T02220124  RH  054%=      5-min Rain = 0
KCH1 180235Z 18005KT 22/12 A2991 RMK A01 T02220124  RH  054%=      5-min Rain = 0
KCH1 180236Z 20006KT 22/12 A2991 RMK A01 T02210124  RH  054%=      5-min Rain = 0
KCH1 180237Z 19006KT 22/13 A2991 RMK A01 T02210125  RH  054%=      5-min Rain = 0
KCH1 180238Z 19007KT 22/13 A2991 RMK A01 T02200125  RH  055%=      5-min Rain = 0
KCH1 180239Z 19005KT 22/13 A2991 RMK A01 T02200125  RH  055%=      5-min Rain = 0
KCH1 180240Z 20007KT 22/13 A2991 RMK A01 T02200125  RH  055%=      5-min Rain = 0
KCH1 180241Z 20007KT 22/13 A2991 RMK A01 T02200125  RH  055%=      5-min Rain = 0
KCH1 180242Z 19006KT 22/13 A2991 RMK A01 T02200125  RH  055%=      5-min Rain = 0
KCH1 180243Z 19007KT 22/13 A2991 RMK A01 T02190125  RH  055%=      5-min Rain = 0
KCH1 180244Z 19007KT 22/13 A2991 RMK A01 T02200126  RH  055%=      5-min Rain = 0
KCH1 180245Z 19007KT 22/13 A2991 RMK A01 T02190126  RH  055%=      5-min Rain = 0
KCH1 180246Z 19006KT 22/13 A2991 RMK A01 T02190126  RH  055%=      5-min Rain = 0
KCH1 180247Z 19006KT 22/13 A2991 RMK A01 T02190126  RH  056%=      5-min Rain = 0
KCH1 180248Z 18006KT 22/13 A2991 RMK A01 T02180126  RH  056%=      5-min Rain = 0
KCH1 180249Z 18007KT 22/13 A2991 RMK A01 T02180126  RH  056%=      5-min Rain = 0
KCH1 180250Z 18006KT 22/13 A2991 RMK A01 T02170126  RH  056%=      5-min Rain = 0
KCH1 180251Z 19006KT 22/13 A2991 RMK A01 T02170127  RH  056%=      5-min Rain = 0
KCH1 180252Z 18006KT 22/13 A2991 RMK A01 T02170127  RH  056%=      5-min Rain = 0
KCH1 180253Z 18006KT 22/13 A2991 RMK A01 T02170127  RH  057%=      5-min Rain = 0
KCH1 180254Z 19006KT 22/13 A2991 RMK A01 T02160127  RH  057%=      5-min Rain = 0
KCH1 180255Z 18005KT 22/13 A2991 RMK A01 T02150127  RH  057%=      5-min Rain = 0
KCH1 180256Z 17005KT 22/13 A2991 RMK A01 T02150127  RH  057%=      5-min Rain = 0
KCH1 180257Z 18005KT 22/13 A2991 RMK A01 T02150128  RH  058%=      5-min Rain = 0
KCH1 180258Z 18005KT 21/13 A2991 RMK A01 T02140128  RH  058%=      5-min Rain = 0
KCH1 180259Z 18006KT 21/13 A2991 RMK A01 T02130128  RH  058%=      5-min Rain = 0
KCH1 180300Z 17006KT 21/13 A2991 RMK A01 T02130128  RH  059%=      5-min Rain = 0
KCH1 180301Z 18006KT 21/13 A2991 RMK A01 T02130129  RH  059%=      5-min Rain = 0
KCH1 180302Z 17005KT 21/13 A2991 RMK A01 T02130129  RH  059%=      5-min Rain = 0
KCH1 180303Z 18005KT 21/13 A2991 RMK A01 T02120129  RH  059%=      5-min Rain = 0
KCH1 180304Z 18005KT 21/13 A2991 RMK A01 T02120129  RH  059%=      5-min Rain = 0
KCH1 180305Z 18005KT 21/13 A2991 RMK A01 T02110129  RH  059%=      5-min Rain = 0
KCH1 180306Z 18006KT 21/13 A2991 RMK A01 T02110130  RH  060%=      5-min Rain = 0
KCH1 180307Z 18004KT 21/13 A2991 RMK A01 T02110130  RH  060%=      5-min Rain = 0
KCH1 180308Z 18006KT 21/13 A2991 RMK A01 T02110131  RH  060%=      5-min Rain = 0
KCH1 180309Z 18005KT 21/13 A2991 RMK A01 T02110131  RH  060%=      5-min Rain = 0
KCH1 180310Z 18005KT 21/13 A2991 RMK A01 T02110131  RH  060%=      5-min Rain = 0
KCH1 180311Z 17005KT 21/13 A2991 RMK A01 T02100132  RH  061%=      5-min Rain = 0
KCH1 180312Z 18005KT 21/13 A2991 RMK A01 T02100132  RH  061%=      5-min Rain = 0
KCH1 180313Z 17005KT 21/13 A2991 RMK A01 T02090132  RH  061%=      5-min Rain = 0
KCH1 180314Z 17005KT 21/13 A2991 RMK A01 T02090133  RH  062%=      5-min Rain = 0
KCH1 180315Z 17005KT 21/13 A2991 RMK A01 T02090133  RH  062%=      5-min Rain = 0
KCH1 180316Z 17004KT 21/13 A2991 RMK A01 T02090133  RH  062%=      5-min Rain = 0
KCH1 180317Z 17003KT 21/13 A2991 RMK A01 T02090133  RH  062%=      5-min Rain = 0
KCH1 180318Z 17004KT 21/13 A2991 RMK A01 T02090133  RH  062%=      5-min Rain = 0
KCH1 180319Z 17005KT 21/13 A2991 RMK A01 T02080133  RH  062%=      5-min Rain = 0
KCH1 180320Z 18006KT 21/13 A2991 RMK A01 T02080134  RH  062%=      5-min Rain = 0
KCH1 180321Z 17005KT 21/13 A2991 RMK A01 T02090134  RH  062%=      5-min Rain = 0
KCH1 180322Z 17005KT 21/13 A2991 RMK A01 T02090134  RH  062%=      5-min Rain = 0
KCH1 180323Z 18005KT 21/13 A2991 RMK A01 T02080134  RH  062%=      5-min Rain = 0
KCH1 180324Z 17005KT 21/13 A2991 RMK A01 T02080134  RH  063%=      5-min Rain = 0
KCH1 180325Z 17005KT 21/13 A2991 RMK A01 T02080134  RH  063%=      5-min Rain = 0
KCH1 180326Z 18005KT 21/13 A2991 RMK A01 T02070134  RH  063%=      5-min Rain = 0
KCH1 180327Z 17006KT 21/14 A2991 RMK A01 T02070135  RH  063%=      5-min Rain = 0
KCH1 180328Z 17005KT 21/13 A2991 RMK A01 T02070134  RH  063%=      5-min Rain = 0
KCH1 180329Z 18006KT 21/14 A2991 RMK A01 T02060135  RH  063%=      5-min Rain = 0
KCH1 180330Z 18006KT 21/14 A2991 RMK A01 T02060135  RH  064%=      5-min Rain = 0
KCH1 180331Z 18005KT 21/14 A2991 RMK A01 T02060135  RH  063%=      5-min Rain = 0
KCH1 180332Z 18005KT 21/14 A2991 RMK A01 T02060135  RH  063%=      5-min Rain = 0
KCH1 180333Z 18004KT 21/14 A2991 RMK A01 T02060135  RH  064%=      5-min Rain = 0
KCH1 180334Z 18004KT 21/14 A2991 RMK A01 T02060135  RH  064%=      5-min Rain = 0
KCH1 180335Z 18005KT 21/14 A2991 RMK A01 T02060136  RH  064%=      5-min Rain = 0
KCH1 180336Z 18004KT 21/14 A2991 RMK A01 T02060136  RH  064%=      5-min Rain = 0
KCH1 180337Z 18004KT 21/14 A2991 RMK A01 T02050136  RH  064%=      5-min Rain = 0
KCH1 180338Z 19004KT 21/14 A2991 RMK A01 T02050136  RH  064%=      5-min Rain = 0
KCH1 180339Z 19004KT 21/14 A2991 RMK A01 T02050136  RH  064%=      5-min Rain = 0
KCH1 180340Z 18004KT 20/14 A2991 RMK A01 T02040136  RH  065%=      5-min Rain = 0
KCH1 180341Z 18003KT 21/14 A2991 RMK A01 T02050136  RH  065%=      5-min Rain = 0
KCH1 180342Z 18004KT 21/14 A2991 RMK A01 T02050136  RH  065%=      5-min Rain = 0
KCH1 180343Z 18005KT 21/14 A2991 RMK A01 T02050137  RH  065%=      5-min Rain = 0
KCH1 180344Z 18004KT 21/14 A2991 RMK A01 T02050137  RH  065%=      5-min Rain = 0
KCH1 180345Z 19005KT 21/14 A2991 RMK A01 T02050137  RH  065%=      5-min Rain = 0
KCH1 180346Z 18004KT 21/14 A2991 RMK A01 T02050137  RH  065%=      5-min Rain = 0
KCH1 180347Z 18005KT 21/14 A2991 RMK A01 T02050137  RH  065%=      5-min Rain = 0
KCH1 180348Z 19005KT 20/14 A2991 RMK A01 T02040137  RH  065%=      5-min Rain = 0
KCH1 180349Z 18004KT 20/14 A2991 RMK A01 T02040137  RH  065%=      5-min Rain = 0
KCH1 180350Z 19004KT 20/14 A2991 RMK A01 T02030137  RH  066%=      5-min Rain = 0
KCH1 180351Z 19004KT 20/14 A2991 RMK A01 T02030138  RH  066%=      5-min Rain = 0
KCH1 180352Z 19005KT 20/14 A2991 RMK A01 T02030137  RH  066%=      5-min Rain = 0
KCH1 180353Z 18005KT 20/14 A2991 RMK A01 T02030138  RH  066%=      5-min Rain = 0
KCH1 180354Z 18006KT 20/14 A2991 RMK A01 T02030138  RH  066%=      5-min Rain = 0
KCH1 180355Z 19005KT 20/14 A2991 RMK A01 T02020138  RH  066%=      5-min Rain = 0
KCH1 180356Z 18004KT 20/14 A2991 RMK A01 T02020138  RH  067%=      5-min Rain = 0
KCH1 180357Z 18004KT 20/14 A2991 RMK A01 T02020139  RH  067%=      5-min Rain = 0
KCH1 180358Z 18003KT 20/14 A2991 RMK A01 T02020138  RH  067%=      5-min Rain = 0
KCH1 180359Z 19003KT 20/14 A2991 RMK A01 T02010138  RH  067%=      5-min Rain = 0
KCH1 180400Z 17003KT 20/14 A2991 RMK A01 T02010138  RH  067%=      5-min Rain = 0
KCH1 180401Z 17004KT 20/14 A2991 RMK A01 T02010138  RH  067%=      5-min Rain = 0
KCH1 180402Z 17004KT 20/14 A2991 RMK A01 T02010139  RH  067%=      5-min Rain = 0
KCH1 180403Z 17004KT 20/14 A2991 RMK A01 T02010139  RH  067%=      5-min Rain = 0
KCH1 180404Z 17004KT 20/14 A2991 RMK A01 T02010139  RH  067%=      5-min Rain = 0
KCH1 180405Z 17004KT 20/14 A2991 RMK A01 T02010139  RH  067%=      5-min Rain = 0
KCH1 180406Z 18004KT 20/14 A2991 RMK A01 T02010139  RH  067%=      5-min Rain = 0
KCH1 180407Z 18003KT 20/14 A2991 RMK A01 T02010139  RH  067%=      5-min Rain = 0
KCH1 180408Z 17005KT 20/14 A2991 RMK A01 T02010139  RH  068%=      5-min Rain = 0
KCH1 180409Z 18004KT 20/14 A2991 RMK A01 T02000139  RH  068%=      5-min Rain = 0
KCH1 180410Z 18005KT 20/14 A2991 RMK A01 T02010139  RH  068%=      5-min Rain = 0
KCH1 180411Z 17004KT 20/14 A2991 RMK A01 T02010139  RH  068%=      5-min Rain = 0
KCH1 180412Z 17005KT 20/14 A2991 RMK A01 T02010140  RH  068%=      5-min Rain = 0
KCH1 180413Z 17004KT 20/14 A2991 RMK A01 T02010140  RH  068%=      5-min Rain = 0
KCH1 180414Z 17003KT 20/14 A2991 RMK A01 T02000139  RH  068%=      5-min Rain = 0
KCH1 180415Z 17004KT 20/14 A2992 RMK A01 T02000139  RH  068%=      5-min Rain = 0
KCH1 180416Z 17004KT 20/14 A2992 RMK A01 T01990139  RH  068%=      5-min Rain = 0
KCH1 180417Z 17004KT 20/14 A2991 RMK A01 T01990139  RH  068%=      5-min Rain = 0
KCH1 180418Z 17003KT 20/14 A2992 RMK A01 T01990139  RH  068%=      5-min Rain = 0
KCH1 180419Z 17004KT 20/14 A2992 RMK A01 T01990139  RH  068%=      5-min Rain = 0
KCH1 180420Z 17004KT 20/14 A2992 RMK A01 T01990139  RH  068%=      5-min Rain = 0
KCH1 180421Z 17003KT 20/14 A2992 RMK A01 T01990139  RH  068%=      5-min Rain = 0
KCH1 180422Z 16003KT 20/14 A2992 RMK A01 T01980139  RH  069%=      5-min Rain = 0
KCH1 180423Z 17002KT 20/14 A2992 RMK A01 T01980139  RH  069%=      5-min Rain = 0
KCH1 180424Z 16002KT 20/14 A2992 RMK A01 T01980139  RH  069%=      5-min Rain = 0
KCH1 180425Z 16003KT 20/14 A2992 RMK A01 T01980139  RH  069%=      5-min Rain = 0
KCH1 180426Z 16003KT 20/14 A2992 RMK A01 T01980139  RH  069%=      5-min Rain = 0
KCH1 180427Z 15002KT 20/14 A2992 RMK A01 T01980139  RH  069%=      5-min Rain = 0
KCH1 180428Z 14003KT 20/14 A2992 RMK A01 T01980139  RH  069%=      5-min Rain = 0
KCH1 180429Z 13002KT 20/14 A2992 RMK A01 T01980139  RH  069%=      5-min Rain = 0
KCH1 180430Z 13003KT 20/14 A2992 RMK A01 T01970139  RH  069%=      5-min Rain = 0
KCH1 180431Z 13002KT 20/14 A2993 RMK A01 T01970139  RH  069%=      5-min Rain = 0
KCH1 180432Z 11002KT 20/14 A2993 RMK A01 T01970139  RH  069%=      5-min Rain = 0
KCH1 180433Z 11002KT 20/14 A2993 RMK A01 T01960138  RH  069%=      5-min Rain = 0
KCH1 180434Z 11002KT 19/14 A2993 RMK A01 T01940138  RH  070%=      5-min Rain = 0
KCH1 180435Z 13003KT 19/14 A2993 RMK A01 T01930138  RH  070%=      5-min Rain = 0
KCH1 180436Z 12003KT 19/14 A2993 RMK A01 T01920139  RH  071%=      5-min Rain = 0
KCH1 180437Z 12003KT 19/14 A2993 RMK A01 T01920138  RH  071%=      5-min Rain = 0
KCH1 180438Z 12003KT 19/14 A2993 RMK A01 T01910139  RH  072%=      5-min Rain = 0
KCH1 180439Z 11002KT 19/14 A2993 RMK A01 T01910139  RH  072%=      5-min Rain = 0
KCH1 180440Z 10003KT 19/14 A2993 RMK A01 T01910139  RH  072%=      5-min Rain = 0
KCH1 180441Z 10002KT 19/14 A2993 RMK A01 T01900139  RH  072%=      5-min Rain = 0
KCH1 180442Z 11002KT 19/14 A2993 RMK A01 T01900139  RH  072%=      5-min Rain = 0
KCH1 180443Z 12003KT 19/14 A2993 RMK A01 T01900138  RH  072%=      5-min Rain = 0
KCH1 180444Z 12002KT 19/14 A2993 RMK A01 T01900139  RH  072%=      5-min Rain = 0
KCH1 180445Z 13002KT 19/14 A2993 RMK A01 T01900138  RH  072%=      5-min Rain = 0
KCH1 180446Z 14003KT 19/14 A2993 RMK A01 T01890138  RH  072%=      5-min Rain = 0
KCH1 180447Z 14003KT 19/14 A2993 RMK A01 T01890138  RH  072%=      5-min Rain = 0
KCH1 180448Z 14003KT 19/14 A2993 RMK A01 T01880138  RH  073%=      5-min Rain = 0
KCH1 180449Z 14003KT 19/14 A2993 RMK A01 T01880138  RH  073%=      5-min Rain = 0
KCH1 180450Z 14003KT 19/14 A2993 RMK A01 T01870138  RH  073%=      5-min Rain = 0
KCH1 180451Z 14003KT 19/14 A2993 RMK A01 T01870138  RH  073%=      5-min Rain = 0
KCH1 180452Z 13003KT 19/14 A2993 RMK A01 T01870138  RH  073%=      5-min Rain = 0
KCH1 180453Z 13003KT 19/14 A2993 RMK A01 T01860138  RH  073%=      5-min Rain = 0
KCH1 180454Z 13003KT 19/14 A2993 RMK A01 T01850138  RH  074%=      5-min Rain = 0
KCH1 180455Z 14003KT 19/14 A2993 RMK A01 T01850138  RH  074%=      5-min Rain = 0
KCH1 180456Z 14003KT 19/14 A2993 RMK A01 T01850138  RH  074%=      5-min Rain = 0
KCH1 180457Z 14003KT 18/14 A2993 RMK A01 T01840138  RH  074%=      5-min Rain = 0
KCH1 180458Z 15004KT 18/14 A2993 RMK A01 T01840138  RH  074%=      5-min Rain = 0
KCH1 180459Z 15003KT 18/14 A2993 RMK A01 T01840138  RH  074%=      5-min Rain = 0

Page generated in 0.0805 seconds.